Observation data for Lomax on 05/15/2018      Previous  Date  Next       Current Mesonet Observations  Soil Data  Daily Summary Page  Observations in Plain Language
KLO1 150500Z 17014KT 24/16 A2995 RMK A01 T02360158  RH  062%=      5-min Rain = 0
KLO1 150501Z 16013KT 24/16 A2995 RMK A01 T02360158  RH  062%=      5-min Rain = 0
KLO1 150502Z 17013KT 24/16 A2995 RMK A01 T02360158  RH  061%=      5-min Rain = 0
KLO1 150503Z 16013KT 24/16 A2995 RMK A01 T02360158  RH  062%=      5-min Rain = 0
KLO1 150504Z 16013KT 24/16 A2995 RMK A01 T02350157  RH  062%=      5-min Rain = 0
KLO1 150505Z 16012KT 24/16 A2995 RMK A01 T02350157  RH  062%=      5-min Rain = 0
KLO1 150506Z 16013KT 24/16 A2995 RMK A01 T02350157  RH  062%=      5-min Rain = 0
KLO1 150507Z 16014KT 24/16 A2995 RMK A01 T02350157  RH  062%=      5-min Rain = 0
KLO1 150508Z 16013KT 24/16 A2995 RMK A01 T02350157  RH  062%=      5-min Rain = 0
KLO1 150509Z 17014KT 23/16 A2995 RMK A01 T02340157  RH  062%=      5-min Rain = 0
KLO1 150510Z 16013KT 23/16 A2995 RMK A01 T02340157  RH  062%=      5-min Rain = 0
KLO1 150511Z 16014KT 23/16 A2995 RMK A01 T02340157  RH  062%=      5-min Rain = 0
KLO1 150512Z 16012KT 23/16 A2995 RMK A01 T02340157  RH  062%=      5-min Rain = 0
KLO1 150513Z 16011KT 23/16 A2995 RMK A01 T02330157  RH  062%=      5-min Rain = 0
KLO1 150514Z 16011KT 23/16 A2995 RMK A01 T02330157  RH  062%=      5-min Rain = 0
KLO1 150515Z 16011KT 23/16 A2995 RMK A01 T02320156  RH  062%=      5-min Rain = 0
KLO1 150516Z 16010KT 23/16 A2995 RMK A01 T02320156  RH  062%=      5-min Rain = 0
KLO1 150517Z 15009KT 23/16 A2995 RMK A01 T02310156  RH  062%=      5-min Rain = 0
KLO1 150518Z 15010KT 23/16 A2995 RMK A01 T02310156  RH  063%=      5-min Rain = 0
KLO1 150519Z 15012KT 23/16 A2995 RMK A01 T02300156  RH  063%=      5-min Rain = 0
KLO1 150520Z 15013KT 23/16 A2995 RMK A01 T02300155  RH  063%=      5-min Rain = 0
KLO1 150521Z 15011G16KT 23/15 A2995 RMK A01 T02300154  RH  062%=      5-min Rain = 0
KLO1 150522Z 15012KT 23/15 A2995 RMK A01 T02300154  RH  062%=      5-min Rain = 0
KLO1 150523Z 16013KT 23/15 A2995 RMK A01 T02300153  RH  062%=      5-min Rain = 0
KLO1 150524Z 16014KT 23/15 A2995 RMK A01 T02300153  RH  062%=      5-min Rain = 0
KLO1 150525Z 15013KT 23/15 A2995 RMK A01 T02300154  RH  062%=      5-min Rain = 0
KLO1 150526Z 16012KT 23/15 A2995 RMK A01 T02300154  RH  062%=      5-min Rain = 0
KLO1 150527Z 16012KT 23/15 A2995 RMK A01 T02290153  RH  062%=      5-min Rain = 0
KLO1 150528Z 15013KT 23/15 A2995 RMK A01 T02290154  RH  063%=      5-min Rain = 0
KLO1 150529Z 16012KT 23/15 A2995 RMK A01 T02280154  RH  063%=      5-min Rain = 0
KLO1 150530Z 16011KT 23/15 A2995 RMK A01 T02280154  RH  063%=      5-min Rain = 0
KLO1 150531Z 15011KT 23/15 A2995 RMK A01 T02280154  RH  063%=      5-min Rain = 0
KLO1 150532Z 16012KT 23/15 A2995 RMK A01 T02270154  RH  063%=      5-min Rain = 0
KLO1 150533Z 16011KT 23/16 A2995 RMK A01 T02270155  RH  064%=      5-min Rain = 0
KLO1 150534Z 16011KT 23/16 A2996 RMK A01 T02270155  RH  064%=      5-min Rain = 0
KLO1 150535Z 16012KT 23/16 A2995 RMK A01 T02270155  RH  064%=      5-min Rain = 0
KLO1 150536Z 15012KT 23/16 A2995 RMK A01 T02270156  RH  064%=      5-min Rain = 0
KLO1 150537Z 16012KT 23/16 A2995 RMK A01 T02260156  RH  064%=      5-min Rain = 0
KLO1 150538Z 16012KT 23/16 A2995 RMK A01 T02270157  RH  065%=      5-min Rain = 0
KLO1 150539Z 16010KT 23/16 A2996 RMK A01 T02260157  RH  065%=      5-min Rain = 0
KLO1 150540Z 15011KT 23/16 A2996 RMK A01 T02260157  RH  065%=      5-min Rain = 0
KLO1 150541Z 15012KT 23/16 A2996 RMK A01 T02260157  RH  065%=      5-min Rain = 0
KLO1 150542Z 15011KT 23/16 A2996 RMK A01 T02260158  RH  065%=      5-min Rain = 0
KLO1 150543Z 15012KT 23/16 A2996 RMK A01 T02260157  RH  065%=      5-min Rain = 0
KLO1 150544Z 15012KT 23/16 A2996 RMK A01 T02260158  RH  065%=      5-min Rain = 0
KLO1 150545Z 14011KT 23/16 A2996 RMK A01 T02250158  RH  065%=      5-min Rain = 0
KLO1 150546Z 14011KT 23/16 A2996 RMK A01 T02250157  RH  065%=      5-min Rain = 0
KLO1 150547Z 14013KT 23/16 A2997 RMK A01 T02250157  RH  065%=      5-min Rain = 0
KLO1 150548Z 14012KT 22/16 A2997 RMK A01 T02240157  RH  065%=      5-min Rain = 0
KLO1 150549Z 14012KT 22/16 A2997 RMK A01 T02240156  RH  065%=      5-min Rain = 0
KLO1 150550Z 15012KT 22/16 A2997 RMK A01 T02240156  RH  066%=      5-min Rain = 0
KLO1 150551Z 15013KT 22/16 A2996 RMK A01 T02230156  RH  066%=      5-min Rain = 0
KLO1 150552Z 15013KT 22/16 A2996 RMK A01 T02230156  RH  066%=      5-min Rain = 0
KLO1 150553Z 16011KT 22/16 A2996 RMK A01 T02230156  RH  066%=      5-min Rain = 0
KLO1 150554Z 15013KT 22/16 A2996 RMK A01 T02230157  RH  066%=      5-min Rain = 0
KLO1 150555Z 14013KT 22/16 A2996 RMK A01 T02230157  RH  066%=      5-min Rain = 0
KLO1 150556Z 14012KT 22/16 A2997 RMK A01 T02230156  RH  066%=      5-min Rain = 0
KLO1 150557Z 13013KT 22/16 A2997 RMK A01 T02230156  RH  066%=      5-min Rain = 0
KLO1 150558Z 12014KT 22/16 A2997 RMK A01 T02220155  RH  066%=      5-min Rain = 0
KLO1 150559Z 13016KT 22/15 A2997 RMK A01 T02210153  RH  065%=      5-min Rain = 0
KLO1 150600Z 14014KT 22/15 A2997 RMK A01 T02200151  RH  065%=      5-min Rain = 0
KLO1 150601Z 14014KT 22/15 A2997 RMK A01 T02190151  RH  065%=      5-min Rain = 0
KLO1 150602Z 15014KT 22/15 A2997 RMK A01 T02180152  RH  066%=      5-min Rain = 0
KLO1 150603Z 15014KT 22/15 A2997 RMK A01 T02180152  RH  066%=      5-min Rain = 0
KLO1 150604Z 15014KT 22/15 A2997 RMK A01 T02180152  RH  066%=      5-min Rain = 0
KLO1 150605Z 15014KT 22/15 A2997 RMK A01 T02170152  RH  066%=      5-min Rain = 0
KLO1 150606Z 14013KT 22/15 A2997 RMK A01 T02180153  RH  067%=      5-min Rain = 0
KLO1 150607Z 14011KT 22/15 A2997 RMK A01 T02170152  RH  066%=      5-min Rain = 0
KLO1 150608Z 13011KT 22/15 A2997 RMK A01 T02170152  RH  066%=      5-min Rain = 0
KLO1 150609Z 14012KT 22/15 A2997 RMK A01 T02160151  RH  067%=      5-min Rain = 0
KLO1 150610Z 14013KT 22/15 A2997 RMK A01 T02150151  RH  067%=      5-min Rain = 0
KLO1 150611Z 13013G18KT 21/15 A2997 RMK A01 T02140151  RH  067%=      5-min Rain = 0
KLO1 150612Z 14014KT 21/15 A2997 RMK A01 T02140151  RH  067%=      5-min Rain = 0
KLO1 150613Z 15014KT 21/15 A2997 RMK A01 T02130151  RH  068%=      5-min Rain = 0
KLO1 150614Z 15014KT 21/15 A2997 RMK A01 T02120152  RH  068%=      5-min Rain = 0
KLO1 150615Z 16014KT 21/15 A2997 RMK A01 T02130153  RH  069%=      5-min Rain = 0
KLO1 150616Z 16013KT 21/15 A2997 RMK A01 T02130153  RH  069%=      5-min Rain = 0
KLO1 150617Z 15013KT 21/15 A2997 RMK A01 T02120153  RH  069%=      5-min Rain = 0
KLO1 150618Z 15014KT 21/15 A2997 RMK A01 T02120153  RH  069%=      5-min Rain = 0
KLO1 150619Z 15012KT 21/15 A2997 RMK A01 T02120154  RH  069%=      5-min Rain = 0
KLO1 150620Z 14014KT 21/15 A2997 RMK A01 T02120154  RH  069%=      5-min Rain = 0
KLO1 150621Z 14012KT 21/16 A2997 RMK A01 T02130155  RH  069%=      5-min Rain = 0
KLO1 150622Z 14012KT 21/15 A2997 RMK A01 T02130154  RH  069%=      5-min Rain = 0
KLO1 150623Z 14012KT 21/15 A2997 RMK A01 T02120154  RH  069%=      5-min Rain = 0
KLO1 150624Z 14012KT 21/16 A2997 RMK A01 T02120155  RH  070%=      5-min Rain = 0
KLO1 150625Z 14012KT 21/16 A2997 RMK A01 T02120155  RH  070%=      5-min Rain = 0
KLO1 150626Z 15013KT 21/16 A2997 RMK A01 T02120155  RH  070%=      5-min Rain = 0
KLO1 150627Z 15013KT 21/16 A2997 RMK A01 T02110156  RH  070%=      5-min Rain = 0
KLO1 150628Z 15012KT 21/16 A2997 RMK A01 T02110156  RH  070%=      5-min Rain = 0
KLO1 150629Z 15014KT 21/16 A2997 RMK A01 T02120156  RH  071%=      5-min Rain = 0
KLO1 150630Z 14011KT 21/16 A2997 RMK A01 T02120156  RH  071%=      5-min Rain = 0
KLO1 150631Z 15012KT 21/16 A2997 RMK A01 T02110156  RH  070%=      5-min Rain = 0
KLO1 150632Z 15011KT 21/16 A2997 RMK A01 T02110156  RH  071%=      5-min Rain = 0
KLO1 150633Z 15012KT 21/16 A2997 RMK A01 T02110156  RH  071%=      5-min Rain = 0
KLO1 150634Z 15011KT 21/16 A2997 RMK A01 T02110156  RH  071%=      5-min Rain = 0
KLO1 150635Z 15011KT 21/16 A2997 RMK A01 T02100156  RH  071%=      5-min Rain = 0
KLO1 150636Z 15012KT 21/16 A2997 RMK A01 T02100157  RH  072%=      5-min Rain = 0
KLO1 150637Z 16012KT 21/16 A2997 RMK A01 T02100157  RH  072%=      5-min Rain = 0
KLO1 150638Z 16012KT 21/16 A2997 RMK A01 T02100157  RH  072%=      5-min Rain = 0
KLO1 150639Z 16015KT 21/16 A2996 RMK A01 T02110158  RH  072%=      5-min Rain = 0
KLO1 150640Z 16014KT 21/16 A2997 RMK A01 T02120159  RH  072%=      5-min Rain = 0
KLO1 150641Z 15013KT 21/16 A2996 RMK A01 T02120159  RH  071%=      5-min Rain = 0
KLO1 150642Z 15015KT 21/16 A2996 RMK A01 T02120159  RH  071%=      5-min Rain = 0
KLO1 150643Z 15013KT 21/16 A2997 RMK A01 T02120158  RH  071%=      5-min Rain = 0
KLO1 150644Z 15013KT 21/16 A2996 RMK A01 T02120159  RH  071%=      5-min Rain = 0
KLO1 150645Z 16014KT 21/16 A2996 RMK A01 T02120159  RH  071%=      5-min Rain = 0
KLO1 150646Z 15013KT 21/16 A2996 RMK A01 T02130159  RH  071%=      5-min Rain = 0
KLO1 150647Z 16013KT 21/16 A2996 RMK A01 T02120159  RH  071%=      5-min Rain = 0
KLO1 150648Z 16013KT 21/16 A2996 RMK A01 T02120159  RH  071%=      5-min Rain = 0
KLO1 150649Z 16014KT 21/16 A2996 RMK A01 T02120159  RH  072%=      5-min Rain = 0
KLO1 150650Z 16013KT 21/16 A2996 RMK A01 T02120159  RH  072%=      5-min Rain = 0
KLO1 150651Z 17012KT 21/16 A2996 RMK A01 T02120159  RH  072%=      5-min Rain = 0
KLO1 150652Z 17012G17KT 21/16 A2996 RMK A01 T02120159  RH  072%=      5-min Rain = 0
KLO1 150653Z 17013KT 21/16 A2996 RMK A01 T02120159  RH  072%=      5-min Rain = 0
KLO1 150654Z 17013KT 21/16 A2996 RMK A01 T02130159  RH  072%=      5-min Rain = 0
KLO1 150655Z 17014KT 21/16 A2996 RMK A01 T02130160  RH  072%=      5-min Rain = 0
KLO1 150656Z 17012KT 21/16 A2996 RMK A01 T02130160  RH  072%=      5-min Rain = 0
KLO1 150657Z 17013KT 21/16 A2996 RMK A01 T02130160  RH  072%=      5-min Rain = 0
KLO1 150658Z 17014KT 21/16 A2996 RMK A01 T02140160  RH  072%=      5-min Rain = 0
KLO1 150659Z 17012KT 21/16 A2996 RMK A01 T02140160  RH  071%=      5-min Rain = 0
KLO1 150700Z 17014KT 21/16 A2996 RMK A01 T02140160  RH  071%=      5-min Rain = 0
KLO1 150701Z 16015KT 21/16 A2996 RMK A01 T02140160  RH  071%=      5-min Rain = 0
KLO1 150702Z 17013KT 21/16 A2996 RMK A01 T02140160  RH  071%=      5-min Rain = 0
KLO1 150703Z 17013KT 21/16 A2996 RMK A01 T02140160  RH  071%=      5-min Rain = 0
KLO1 150704Z 17012KT 21/16 A2995 RMK A01 T02140161  RH  071%=      5-min Rain = 0
KLO1 150705Z 16012KT 21/16 A2996 RMK A01 T02140160  RH  071%=      5-min Rain = 0
KLO1 150706Z 16013KT 21/16 A2995 RMK A01 T02140161  RH  071%=      5-min Rain = 0
KLO1 150707Z 16013KT 21/16 A2995 RMK A01 T02140161  RH  072%=      5-min Rain = 0
KLO1 150708Z 16011KT 21/16 A2995 RMK A01 T02140161  RH  071%=      5-min Rain = 0
KLO1 150709Z 16013KT 21/16 A2995 RMK A01 T02140160  RH  071%=      5-min Rain = 0
KLO1 150710Z 16012KT 21/16 A2995 RMK A01 T02140161  RH  071%=      5-min Rain = 0
KLO1 150711Z 16012KT 22/16 A2995 RMK A01 T02150161  RH  071%=      5-min Rain = 0
KLO1 150712Z 16013KT 22/16 A2995 RMK A01 T02150161  RH  071%=      5-min Rain = 0
KLO1 150713Z 16012KT 22/16 A2995 RMK A01 T02150161  RH  071%=      5-min Rain = 0
KLO1 150714Z 16012KT 22/16 A2995 RMK A01 T02150161  RH  071%=      5-min Rain = 0
KLO1 150715Z 17013KT 22/16 A2995 RMK A01 T02160161  RH  071%=      5-min Rain = 0
KLO1 150716Z 17012KT 22/16 A2995 RMK A01 T02160160  RH  071%=      5-min Rain = 0
KLO1 150717Z 17011KT 22/16 A2995 RMK A01 T02160160  RH  070%=      5-min Rain = 0
KLO1 150718Z 17012KT 22/16 A2995 RMK A01 T02160160  RH  070%=      5-min Rain = 0
KLO1 150719Z 17012KT 22/16 A2995 RMK A01 T02160159  RH  070%=      5-min Rain = 0
KLO1 150720Z 17013KT 22/16 A2995 RMK A01 T02160159  RH  070%=      5-min Rain = 0
KLO1 150721Z 17011KT 22/16 A2995 RMK A01 T02170159  RH  070%=      5-min Rain = 0
KLO1 150722Z 17012KT 22/16 A2995 RMK A01 T02170158  RH  069%=      5-min Rain = 0
KLO1 150723Z 17013KT 22/16 A2995 RMK A01 T02170158  RH  069%=      5-min Rain = 0
KLO1 150724Z 17014KT 22/16 A2995 RMK A01 T02160157  RH  069%=      5-min Rain = 0
KLO1 150725Z 17015KT 22/16 A2995 RMK A01 T02170157  RH  069%=      5-min Rain = 0
KLO1 150726Z 17013KT 22/16 A2995 RMK A01 T02180157  RH  068%=      5-min Rain = 0
KLO1 150727Z 17012KT 22/16 A2995 RMK A01 T02180157  RH  068%=      5-min Rain = 0
KLO1 150728Z 17012KT 22/16 A2995 RMK A01 T02180156  RH  068%=      5-min Rain = 0
KLO1 150729Z 17013KT 22/16 A2995 RMK A01 T02180156  RH  068%=      5-min Rain = 0
KLO1 150730Z 17012KT 22/16 A2995 RMK A01 T02180156  RH  068%=      5-min Rain = 0
KLO1 150731Z 17013KT 22/16 A2995 RMK A01 T02180156  RH  068%=      5-min Rain = 0
KLO1 150732Z 17010KT 22/16 A2995 RMK A01 T02180156  RH  068%=      5-min Rain = 0
KLO1 150733Z 17011KT 22/16 A2995 RMK A01 T02180156  RH  068%=      5-min Rain = 0
KLO1 150734Z 17011KT 22/16 A2995 RMK A01 T02170156  RH  068%=      5-min Rain = 0
KLO1 150735Z 17013KT 22/16 A2995 RMK A01 T02170156  RH  068%=      5-min Rain = 0
KLO1 150736Z 17012KT 22/16 A2995 RMK A01 T02170156  RH  068%=      5-min Rain = 0
KLO1 150737Z 17011KT 22/16 A2995 RMK A01 T02170155  RH  068%=      5-min Rain = 0
KLO1 150738Z 17010KT 22/16 A2995 RMK A01 T02180156  RH  068%=      5-min Rain = 0
KLO1 150739Z 17009KT 22/16 A2995 RMK A01 T02170156  RH  068%=      5-min Rain = 0
KLO1 150740Z 17011KT 22/16 A2995 RMK A01 T02170155  RH  068%=      5-min Rain = 0
KLO1 150741Z 17010KT 22/16 A2995 RMK A01 T02160155  RH  068%=      5-min Rain = 0
KLO1 150742Z 17010KT 22/16 A2995 RMK A01 T02160155  RH  068%=      5-min Rain = 0
KLO1 150743Z 17010KT 22/16 A2995 RMK A01 T02170155  RH  068%=      5-min Rain = 0
KLO1 150744Z 17011KT 22/16 A2995 RMK A01 T02170155  RH  068%=      5-min Rain = 0
KLO1 150745Z 17010KT 22/16 A2995 RMK A01 T02160155  RH  068%=      5-min Rain = 0
KLO1 150746Z 17012KT 22/15 A2995 RMK A01 T02170154  RH  068%=      5-min Rain = 0
KLO1 150747Z 17010KT 22/15 A2995 RMK A01 T02170154  RH  067%=      5-min Rain = 0
KLO1 150748Z 16012KT 22/15 A2995 RMK A01 T02170153  RH  067%=      5-min Rain = 0
KLO1 150749Z 17010KT 22/15 A2995 RMK A01 T02170153  RH  067%=      5-min Rain = 0
KLO1 150750Z 16010KT 22/15 A2995 RMK A01 T02170152  RH  067%=      5-min Rain = 0
KLO1 150751Z 17010KT 22/15 A2995 RMK A01 T02170152  RH  067%=      5-min Rain = 0
KLO1 150752Z 16010KT 22/15 A2995 RMK A01 T02170152  RH  067%=      5-min Rain = 0
KLO1 150753Z 17011KT 22/15 A2995 RMK A01 T02160152  RH  067%=      5-min Rain = 0
KLO1 150754Z 16011KT 22/15 A2995 RMK A01 T02160152  RH  067%=      5-min Rain = 0
KLO1 150755Z 16010KT 22/15 A2995 RMK A01 T02160152  RH  067%=      5-min Rain = 0
KLO1 150756Z 17009KT 22/15 A2995 RMK A01 T02160151  RH  067%=      5-min Rain = 0
KLO1 150757Z 16010KT 22/15 A2995 RMK A01 T02160151  RH  067%=      5-min Rain = 0
KLO1 150758Z 17011KT 22/15 A2995 RMK A01 T02160151  RH  067%=      5-min Rain = 0
KLO1 150759Z 16011KT 22/15 A2995 RMK A01 T02160151  RH  066%=      5-min Rain = 0
KLO1 150800Z 17010KT 22/15 A2995 RMK A01 T02160150  RH  066%=      5-min Rain = 0
KLO1 150801Z 17011KT 22/15 A2995 RMK A01 T02160150  RH  066%=      5-min Rain = 0
KLO1 150802Z 17011KT 22/15 A2994 RMK A01 T02160149  RH  066%=      5-min Rain = 0
KLO1 150803Z 17009KT 22/15 A2994 RMK A01 T02160149  RH  066%=      5-min Rain = 0
KLO1 150804Z 17009KT 22/15 A2994 RMK A01 T02160149  RH  066%=      5-min Rain = 0
KLO1 150805Z 18010KT 22/15 A2994 RMK A01 T02150148  RH  066%=      5-min Rain = 0
KLO1 150806Z 18009KT 22/15 A2994 RMK A01 T02160148  RH  066%=      5-min Rain = 0
KLO1 150807Z 18009KT 22/15 A2994 RMK A01 T02150148  RH  066%=      5-min Rain = 0
KLO1 150808Z 18009KT 22/15 A2994 RMK A01 T02150148  RH  065%=      5-min Rain = 0
KLO1 150809Z 18009KT 22/15 A2994 RMK A01 T02150148  RH  065%=      5-min Rain = 0
KLO1 150810Z 18011KT 22/15 A2994 RMK A01 T02160148  RH  065%=      5-min Rain = 0
KLO1 150811Z 18011KT 22/15 A2994 RMK A01 T02170149  RH  066%=      5-min Rain = 0
KLO1 150812Z 17011KT 22/15 A2994 RMK A01 T02170149  RH  065%=      5-min Rain = 0
KLO1 150813Z 17010KT 22/15 A2994 RMK A01 T02170149  RH  065%=      5-min Rain = 0
KLO1 150814Z 18011KT 22/15 A2994 RMK A01 T02170149  RH  065%=      5-min Rain = 0
KLO1 150815Z 18011KT 22/15 A2994 RMK A01 T02170150  RH  065%=      5-min Rain = 0
KLO1 150816Z 18011KT 22/15 A2994 RMK A01 T02170150  RH  065%=      5-min Rain = 0
KLO1 150817Z 17009KT 22/15 A2994 RMK A01 T02170149  RH  065%=      5-min Rain = 0
KLO1 150818Z 18010KT 22/15 A2994 RMK A01 T02170149  RH  065%=      5-min Rain = 0
KLO1 150819Z 17010KT 22/15 A2994 RMK A01 T02170150  RH  065%=      5-min Rain = 0
KLO1 150820Z 17011KT 22/15 A2994 RMK A01 T02180150  RH  065%=      5-min Rain = 0
KLO1 150821Z 17011KT 22/15 A2994 RMK A01 T02170150  RH  065%=      5-min Rain = 0
KLO1 150822Z 17010KT 22/15 A2994 RMK A01 T02180150  RH  065%=      5-min Rain = 0
KLO1 150823Z 17011KT 22/15 A2994 RMK A01 T02180150  RH  065%=      5-min Rain = 0
KLO1 150824Z 17010KT 22/15 A2994 RMK A01 T02180150  RH  065%=      5-min Rain = 0
KLO1 150825Z 17010KT 22/15 A2994 RMK A01 T02180149  RH  065%=      5-min Rain = 0
KLO1 150826Z 17009KT 22/15 A2994 RMK A01 T02180149  RH  065%=      5-min Rain = 0
KLO1 150827Z 17010KT 22/15 A2994 RMK A01 T02180149  RH  065%=      5-min Rain = 0
KLO1 150828Z 17011KT 22/15 A2994 RMK A01 T02180149  RH  065%=      5-min Rain = 0
KLO1 150829Z 17011KT 22/15 A2994 RMK A01 T02180148  RH  064%=      5-min Rain = 0
KLO1 150830Z 17011KT 22/15 A2994 RMK A01 T02190148  RH  064%=      5-min Rain = 0
KLO1 150831Z 16011KT 22/15 A2994 RMK A01 T02180147  RH  064%=      5-min Rain = 0
KLO1 150832Z 17011KT 22/15 A2994 RMK A01 T02190147  RH  064%=      5-min Rain = 0
KLO1 150833Z 17011KT 22/15 A2994 RMK A01 T02190147  RH  064%=      5-min Rain = 0
KLO1 150834Z 17012KT 22/15 A2993 RMK A01 T02190146  RH  063%=      5-min Rain = 0
KLO1 150835Z 17011KT 22/15 A2993 RMK A01 T02200146  RH  063%=      5-min Rain = 0
KLO1 150836Z 17010KT 22/15 A2993 RMK A01 T02200146  RH  063%=      5-min Rain = 0
KLO1 150837Z 18011KT 22/15 A2993 RMK A01 T02200146  RH  063%=      5-min Rain = 0
KLO1 150838Z 17010KT 22/15 A2993 RMK A01 T02200146  RH  063%=      5-min Rain = 0
KLO1 150839Z 18011KT 22/15 A2993 RMK A01 T02200146  RH  063%=      5-min Rain = 0
KLO1 150840Z 18011KT 22/15 A2993 RMK A01 T02200146  RH  063%=      5-min Rain = 0
KLO1 150841Z 18012KT 22/15 A2993 RMK A01 T02200147  RH  063%=      5-min Rain = 0
KLO1 150842Z 18011KT 22/15 A2993 RMK A01 T02200147  RH  063%=      5-min Rain = 0
KLO1 150843Z 18010KT 22/15 A2993 RMK A01 T02200148  RH  064%=      5-min Rain = 0
KLO1 150844Z 18009KT 22/15 A2993 RMK A01 T02200148  RH  064%=      5-min Rain = 0
KLO1 150845Z 19009KT 22/15 A2993 RMK A01 T02190148  RH  064%=      5-min Rain = 0
KLO1 150846Z 19008KT 22/15 A2993 RMK A01 T02180148  RH  065%=      5-min Rain = 0
KLO1 150847Z 19009KT 22/15 A2993 RMK A01 T02170149  RH  065%=      5-min Rain = 0
KLO1 150848Z 18010KT 22/15 A2993 RMK A01 T02170149  RH  065%=      5-min Rain = 0
KLO1 150849Z 19011KT 22/15 A2993 RMK A01 T02170149  RH  065%=      5-min Rain = 0
KLO1 150850Z 19012KT 22/15 A2993 RMK A01 T02170148  RH  065%=      5-min Rain = 0
KLO1 150851Z 18011KT 22/15 A2993 RMK A01 T02180148  RH  064%=      5-min Rain = 0
KLO1 150852Z 18012KT 22/15 A2993 RMK A01 T02180148  RH  064%=      5-min Rain = 0
KLO1 150853Z 19013KT 22/15 A2993 RMK A01 T02180147  RH  064%=      5-min Rain = 0
KLO1 150854Z 19012KT 22/15 A2993 RMK A01 T02180147  RH  064%=      5-min Rain = 0
KLO1 150855Z 19010KT 22/15 A2993 RMK A01 T02180147  RH  064%=      5-min Rain = 0
KLO1 150856Z 19010KT 22/15 A2993 RMK A01 T02180147  RH  064%=      5-min Rain = 0
KLO1 150857Z 19011KT 22/15 A2993 RMK A01 T02180148  RH  064%=      5-min Rain = 0
KLO1 150858Z 19012KT 22/15 A2993 RMK A01 T02170147  RH  064%=      5-min Rain = 0
KLO1 150859Z 19013KT 22/15 A2993 RMK A01 T02180147  RH  064%=      5-min Rain = 0
KLO1 150900Z 19011KT 22/15 A2993 RMK A01 T02180147  RH  064%=      5-min Rain = 0
KLO1 150901Z 19011KT 22/15 A2993 RMK A01 T02180147  RH  064%=      5-min Rain = 0
KLO1 150902Z 19009KT 22/15 A2993 RMK A01 T02180147  RH  064%=      5-min Rain = 0
KLO1 150903Z 19011KT 22/15 A2993 RMK A01 T02170147  RH  064%=      5-min Rain = 0
KLO1 150904Z 19010KT 22/15 A2993 RMK A01 T02170147  RH  065%=      5-min Rain = 0
KLO1 150905Z 19011KT 22/15 A2993 RMK A01 T02170147  RH  065%=      5-min Rain = 0
KLO1 150906Z 19011KT 22/15 A2993 RMK A01 T02170147  RH  065%=      5-min Rain = 0
KLO1 150907Z 19010KT 22/15 A2993 RMK A01 T02160147  RH  065%=      5-min Rain = 0
KLO1 150908Z 19012KT 22/15 A2993 RMK A01 T02160146  RH  065%=      5-min Rain = 0
KLO1 150909Z 19012KT 22/15 A2993 RMK A01 T02160146  RH  064%=      5-min Rain = 0
KLO1 150910Z 19010KT 22/15 A2993 RMK A01 T02170145  RH  064%=      5-min Rain = 0
KLO1 150911Z 19010KT 22/15 A2993 RMK A01 T02160145  RH  064%=      5-min Rain = 0
KLO1 150912Z 19010KT 22/15 A2993 RMK A01 T02160145  RH  064%=      5-min Rain = 0
KLO1 150913Z 19010KT 22/14 A2993 RMK A01 T02160144  RH  064%=      5-min Rain = 0
KLO1 150914Z 19011KT 22/14 A2993 RMK A01 T02160144  RH  064%=      5-min Rain = 0
KLO1 150915Z 19011KT 22/14 A2993 RMK A01 T02160144  RH  064%=      5-min Rain = 0
KLO1 150916Z 19010KT 22/14 A2993 RMK A01 T02160143  RH  063%=      5-min Rain = 0
KLO1 150917Z 19009KT 22/14 A2993 RMK A01 T02160144  RH  063%=      5-min Rain = 0
KLO1 150918Z 19008KT 22/14 A2993 RMK A01 T02160144  RH  064%=      5-min Rain = 0
KLO1 150919Z 19007KT 22/14 A2993 RMK A01 T02150143  RH  064%=      5-min Rain = 0
KLO1 150920Z 20008KT 22/14 A2993 RMK A01 T02150143  RH  064%=      5-min Rain = 0
KLO1 150921Z 19007KT 21/14 A2993 RMK A01 T02140143  RH  064%=      5-min Rain = 0
KLO1 150922Z 20010KT 21/14 A2993 RMK A01 T02140143  RH  064%=      5-min Rain = 0
KLO1 150923Z 19010KT 21/14 A2993 RMK A01 T02140144  RH  064%=      5-min Rain = 0
KLO1 150924Z 19010KT 21/14 A2993 RMK A01 T02140143  RH  064%=      5-min Rain = 0
KLO1 150925Z 19010KT 21/14 A2993 RMK A01 T02140143  RH  064%=      5-min Rain = 0
KLO1 150926Z 19009KT 21/14 A2993 RMK A01 T02130142  RH  064%=      5-min Rain = 0
KLO1 150927Z 20010KT 21/14 A2993 RMK A01 T02130142  RH  064%=      5-min Rain = 0
KLO1 150928Z 20009KT 21/14 A2993 RMK A01 T02130142  RH  064%=      5-min Rain = 0
KLO1 150929Z 19009KT 21/14 A2993 RMK A01 T02120141  RH  064%=      5-min Rain = 0
KLO1 150930Z 19009KT 21/14 A2993 RMK A01 T02120141  RH  064%=      5-min Rain = 0
KLO1 150931Z 19009KT 21/14 A2993 RMK A01 T02120140  RH  063%=      5-min Rain = 0
KLO1 150932Z 19010KT 21/14 A2993 RMK A01 T02120140  RH  063%=      5-min Rain = 0
KLO1 150933Z 19009KT 21/14 A2993 RMK A01 T02120139  RH  063%=      5-min Rain = 0
KLO1 150934Z 19009KT 21/14 A2993 RMK A01 T02110138  RH  063%=      5-min Rain = 0
KLO1 150935Z 19009KT 21/14 A2993 RMK A01 T02120138  RH  063%=      5-min Rain = 0
KLO1 150936Z 19008KT 21/14 A2993 RMK A01 T02120138  RH  063%=      5-min Rain = 0
KLO1 150937Z 19008KT 21/14 A2994 RMK A01 T02110138  RH  063%=      5-min Rain = 0
KLO1 150938Z 19008KT 21/14 A2994 RMK A01 T02100137  RH  063%=      5-min Rain = 0
KLO1 150939Z 19009KT 21/14 A2994 RMK A01 T02100137  RH  063%=      5-min Rain = 0
KLO1 150940Z 19010KT 21/14 A2994 RMK A01 T02100137  RH  063%=      5-min Rain = 0
KLO1 150941Z 19009KT 21/14 A2994 RMK A01 T02100137  RH  063%=      5-min Rain = 0
KLO1 150942Z 19009KT 21/14 A2994 RMK A01 T02090137  RH  063%=      5-min Rain = 0
KLO1 150943Z 19008KT 21/14 A2994 RMK A01 T02090137  RH  063%=      5-min Rain = 0
KLO1 150944Z 19008KT 21/14 A2994 RMK A01 T02090137  RH  064%=      5-min Rain = 0
KLO1 150945Z 19008KT 21/14 A2994 RMK A01 T02080137  RH  064%=      5-min Rain = 0
KLO1 150946Z 19007KT 21/14 A2994 RMK A01 T02080137  RH  064%=      5-min Rain = 0
KLO1 150947Z 19007KT 21/14 A2994 RMK A01 T02080137  RH  064%=      5-min Rain = 0
KLO1 150948Z 19007KT 21/14 A2994 RMK A01 T02070137  RH  064%=      5-min Rain = 0
KLO1 150949Z 20007KT 21/14 A2994 RMK A01 T02070137  RH  064%=      5-min Rain = 0
KLO1 150950Z 20008KT 21/14 A2994 RMK A01 T02070137  RH  064%=      5-min Rain = 0
KLO1 150956Z 20009KT 21/14 A2994 RMK A01 T02060136  RH  064%=      5-min Rain = 0
KLO1 150957Z 20009KT 21/14 A2993 RMK A01 T02060136  RH  064%=      5-min Rain = 0
KLO1 150958Z 20009KT 21/14 A2993 RMK A01 T02060136  RH  064%=      5-min Rain = 0
KLO1 150959Z 20009KT 21/14 A2993 RMK A01 T02050136  RH  064%=      5-min Rain = 0
KLO1 151000Z 20008KT 21/14 A2993 RMK A01 T02050135  RH  064%=      5-min Rain = 0
KLO1 151001Z 21007KT 21/14 A2994 RMK A01 T02050135  RH  064%=      5-min Rain = 0
KLO1 151002Z 21007KT 20/14 A2994 RMK A01 T02040135  RH  065%=      5-min Rain = 0
KLO1 151003Z 21007KT 20/14 A2994 RMK A01 T02030136  RH  065%=      5-min Rain = 0
KLO1 151004Z 21006KT 20/14 A2994 RMK A01 T02030136  RH  065%=      5-min Rain = 0
KLO1 151005Z 21007KT 20/14 A2994 RMK A01 T02020136  RH  066%=      5-min Rain = 0
KLO1 151006Z 20007KT 20/14 A2993 RMK A01 T02020137  RH  066%=      5-min Rain = 0
KLO1 151007Z 21006KT 20/14 A2993 RMK A01 T02020137  RH  066%=      5-min Rain = 0
KLO1 151008Z 20006KT 20/14 A2993 RMK A01 T02030137  RH  066%=      5-min Rain = 0
KLO1 151009Z 20006KT 20/14 A2993 RMK A01 T02020137  RH  066%=      5-min Rain = 0
KLO1 151010Z 19006KT 20/14 A2993 RMK A01 T02020137  RH  066%=      5-min Rain = 0
KLO1 151011Z 19006KT 20/14 A2993 RMK A01 T02020137  RH  066%=      5-min Rain = 0
KLO1 151012Z 19006KT 20/14 A2993 RMK A01 T02020137  RH  066%=      5-min Rain = 0
KLO1 151013Z 19005KT 20/14 A2993 RMK A01 T02010137  RH  066%=      5-min Rain = 0
KLO1 151014Z 19006KT 20/14 A2993 RMK A01 T02010137  RH  067%=      5-min Rain = 0
KLO1 151015Z 19006KT 20/14 A2993 RMK A01 T02010138  RH  067%=      5-min Rain = 0
KLO1 151016Z 18006KT 20/14 A2993 RMK A01 T02010138  RH  067%=      5-min Rain = 0
KLO1 151017Z 19006KT 20/14 A2993 RMK A01 T02010138  RH  067%=      5-min Rain = 0
KLO1 151018Z 18006KT 20/14 A2993 RMK A01 T02010138  RH  067%=      5-min Rain = 0
KLO1 151019Z 18006KT 20/14 A2993 RMK A01 T02010138  RH  067%=      5-min Rain = 0
KLO1 151020Z 19006KT 20/14 A2993 RMK A01 T02010138  RH  067%=      5-min Rain = 0
KLO1 151021Z 18007KT 20/14 A2993 RMK A01 T02010138  RH  067%=      5-min Rain = 0
KLO1 151022Z 19008KT 20/14 A2993 RMK A01 T02010138  RH  067%=      5-min Rain = 0
KLO1 151023Z 18007KT 20/14 A2993 RMK A01 T02010138  RH  067%=      5-min Rain = 0
KLO1 151024Z 19007KT 20/14 A2993 RMK A01 T02010138  RH  067%=      5-min Rain = 0
KLO1 151025Z 18007KT 20/14 A2993 RMK A01 T02010138  RH  067%=      5-min Rain = 0
KLO1 151026Z 19006KT 20/14 A2993 RMK A01 T02010138  RH  067%=      5-min Rain = 0
KLO1 151027Z 18006KT 20/14 A2993 RMK A01 T02020139  RH  067%=      5-min Rain = 0
KLO1 151028Z 18006KT 20/14 A2993 RMK A01 T02010138  RH  067%=      5-min Rain = 0
KLO1 151029Z 18007KT 20/14 A2993 RMK A01 T02010138  RH  067%=      5-min Rain = 0
KLO1 151030Z 18007KT 20/14 A2993 RMK A01 T02000138  RH  067%=      5-min Rain = 0
KLO1 151031Z 18007KT 20/14 A2993 RMK A01 T02010138  RH  067%=      5-min Rain = 0
KLO1 151032Z 18006KT 20/14 A2993 RMK A01 T02010138  RH  067%=      5-min Rain = 0
KLO1 151033Z 18006KT 20/14 A2993 RMK A01 T02010138  RH  067%=      5-min Rain = 0
KLO1 151034Z 18006KT 20/14 A2993 RMK A01 T02010138  RH  067%=      5-min Rain = 0
KLO1 151035Z 18006KT 20/14 A2993 RMK A01 T02010139  RH  068%=      5-min Rain = 0
KLO1 151036Z 17005KT 20/14 A2993 RMK A01 T02000139  RH  068%=      5-min Rain = 0
KLO1 151037Z 18004KT 20/14 A2993 RMK A01 T02000138  RH  068%=      5-min Rain = 0
KLO1 151038Z 18004KT 20/14 A2993 RMK A01 T02000138  RH  068%=      5-min Rain = 0
KLO1 151039Z 18004KT 20/14 A2993 RMK A01 T01990138  RH  068%=      5-min Rain = 0
KLO1 151040Z 19005KT 20/14 A2993 RMK A01 T01990139  RH  068%=      5-min Rain = 0
KLO1 151041Z 18005KT 20/14 A2993 RMK A01 T01990139  RH  068%=      5-min Rain = 0
KLO1 151042Z 18005KT 20/14 A2993 RMK A01 T01990139  RH  068%=      5-min Rain = 0
KLO1 151043Z 19004KT 20/14 A2993 RMK A01 T01990139  RH  069%=      5-min Rain = 0
KLO1 151044Z 19005KT 20/14 A2994 RMK A01 T01990139  RH  069%=      5-min Rain = 0
KLO1 151045Z 19004KT 20/14 A2994 RMK A01 T01980139  RH  069%=      5-min Rain = 0
KLO1 151046Z 20004KT 20/14 A2994 RMK A01 T01980139  RH  069%=      5-min Rain = 0
KLO1 151047Z 19004KT 20/14 A2994 RMK A01 T01970139  RH  069%=      5-min Rain = 0
KLO1 151048Z 20004KT 20/14 A2994 RMK A01 T01970140  RH  069%=      5-min Rain = 0
KLO1 151049Z 19005KT 20/14 A2994 RMK A01 T01970140  RH  069%=      5-min Rain = 0
KLO1 151050Z 20005KT 20/14 A2994 RMK A01 T01970140  RH  069%=      5-min Rain = 0
KLO1 151051Z 18005KT 20/14 A2994 RMK A01 T01970140  RH  070%=      5-min Rain = 0
KLO1 151052Z 18005KT 20/14 A2994 RMK A01 T01970140  RH  070%=      5-min Rain = 0
KLO1 151053Z 18006KT 20/14 A2994 RMK A01 T01970140  RH  070%=      5-min Rain = 0
KLO1 151054Z 18006KT 20/14 A2994 RMK A01 T01970140  RH  070%=      5-min Rain = 0
KLO1 151055Z 18008KT 20/14 A2994 RMK A01 T01980141  RH  070%=      5-min Rain = 0
KLO1 151056Z 19008KT 20/14 A2994 RMK A01 T01990141  RH  069%=      5-min Rain = 0
KLO1 151057Z 19007KT 20/14 A2994 RMK A01 T01990141  RH  069%=      5-min Rain = 0
KLO1 151058Z 18009KT 20/14 A2994 RMK A01 T01990140  RH  069%=      5-min Rain = 0
KLO1 151059Z 18008KT 20/14 A2994 RMK A01 T01990141  RH  069%=      5-min Rain = 0
KLO1 151100Z 19008KT 20/14 A2994 RMK A01 T01990141  RH  069%=      5-min Rain = 0
KLO1 151101Z 19007KT 20/14 A2994 RMK A01 T01990141  RH  069%=      5-min Rain = 0
KLO1 151102Z 19007KT 20/14 A2994 RMK A01 T01990141  RH  069%=      5-min Rain = 0
KLO1 151103Z 19008KT 20/14 A2994 RMK A01 T01990141  RH  069%=      5-min Rain = 0
KLO1 151104Z 19007KT 20/14 A2994 RMK A01 T01980141  RH  069%=      5-min Rain = 0
KLO1 151105Z 19007KT 20/14 A2994 RMK A01 T01980141  RH  069%=      5-min Rain = 0
KLO1 151106Z 19007KT 20/14 A2994 RMK A01 T01980140  RH  069%=      5-min Rain = 0
KLO1 151107Z 18007KT 20/14 A2994 RMK A01 T01970140  RH  070%=      5-min Rain = 0
KLO1 151108Z 18007KT 20/14 A2994 RMK A01 T01970141  RH  070%=      5-min Rain = 0
KLO1 151109Z 19006KT 20/14 A2994 RMK A01 T01960140  RH  070%=      5-min Rain = 0
KLO1 151110Z 19006KT 20/14 A2994 RMK A01 T01960140  RH  070%=      5-min Rain = 0
KLO1 151111Z 19006KT 20/14 A2994 RMK A01 T01960140  RH  070%=      5-min Rain = 0
KLO1 151112Z 18006KT 20/14 A2994 RMK A01 T01950140  RH  070%=      5-min Rain = 0
KLO1 151113Z 18006KT 20/14 A2994 RMK A01 T01950140  RH  071%=      5-min Rain = 0
KLO1 151114Z 18006KT 19/14 A2994 RMK A01 T01940140  RH  071%=      5-min Rain = 0
KLO1 151115Z 18006KT 19/14 A2994 RMK A01 T01940140  RH  071%=      5-min Rain = 0
KLO1 151116Z 18005KT 19/14 A2994 RMK A01 T01940140  RH  071%=      5-min Rain = 0
KLO1 151117Z 17005KT 19/14 A2994 RMK A01 T01930139  RH  071%=      5-min Rain = 0
KLO1 151118Z 18005KT 19/14 A2994 RMK A01 T01930139  RH  071%=      5-min Rain = 0
KLO1 151119Z 18005KT 19/14 A2994 RMK A01 T01920139  RH  071%=      5-min Rain = 0
KLO1 151120Z 18005KT 19/14 A2994 RMK A01 T01920139  RH  071%=      5-min Rain = 0
KLO1 151121Z 18005KT 19/14 A2994 RMK A01 T01910139  RH  071%=      5-min Rain = 0
KLO1 151122Z 17006KT 19/14 A2994 RMK A01 T01910138  RH  071%=      5-min Rain = 0
KLO1 151123Z 17006KT 19/14 A2994 RMK A01 T01900138  RH  071%=      5-min Rain = 0
KLO1 151124Z 17006KT 19/14 A2994 RMK A01 T01890137  RH  072%=      5-min Rain = 0
KLO1 151125Z 17007KT 19/14 A2994 RMK A01 T01890138  RH  072%=      5-min Rain = 0
KLO1 151126Z 17006KT 19/14 A2994 RMK A01 T01890138  RH  072%=      5-min Rain = 0
KLO1 151127Z 17006KT 19/14 A2994 RMK A01 T01890138  RH  072%=      5-min Rain = 0
KLO1 151128Z 17006KT 19/14 A2994 RMK A01 T01890138  RH  072%=      5-min Rain = 0
KLO1 151129Z 17006KT 19/14 A2994 RMK A01 T01880138  RH  072%=      5-min Rain = 0
KLO1 151130Z 17006KT 19/14 A2994 RMK A01 T01880138  RH  073%=      5-min Rain = 0
KLO1 151131Z 17006KT 19/14 A2994 RMK A01 T01880138  RH  073%=      5-min Rain = 0
KLO1 151132Z 17006KT 19/14 A2994 RMK A01 T01880138  RH  073%=      5-min Rain = 0
KLO1 151133Z 17006KT 19/14 A2994 RMK A01 T01880138  RH  073%=      5-min Rain = 0
KLO1 151134Z 18005KT 19/14 A2994 RMK A01 T01880138  RH  073%=      5-min Rain = 0
KLO1 151135Z 18005KT 19/14 A2995 RMK A01 T01880139  RH  073%=      5-min Rain = 0
KLO1 151136Z 18005KT 19/14 A2995 RMK A01 T01880139  RH  073%=      5-min Rain = 0
KLO1 151137Z 18006KT 19/14 A2995 RMK A01 T01880139  RH  073%=      5-min Rain = 0
KLO1 151138Z 18005KT 19/14 A2995 RMK A01 T01880139  RH  073%=      5-min Rain = 0
KLO1 151139Z 18005KT 19/14 A2995 RMK A01 T01880139  RH  073%=      5-min Rain = 0
KLO1 151140Z 18005KT 19/14 A2995 RMK A01 T01880139  RH  073%=      5-min Rain = 0
KLO1 151141Z 18005KT 19/14 A2995 RMK A01 T01890139  RH  073%=      5-min Rain = 0
KLO1 151142Z 18005KT 19/14 A2995 RMK A01 T01890140  RH  073%=      5-min Rain = 0
KLO1 151143Z 17005KT 19/14 A2995 RMK A01 T01890140  RH  073%=      5-min Rain = 0
KLO1 151144Z 17004KT 19/14 A2995 RMK A01 T01890140  RH  073%=      5-min Rain = 0
KLO1 151145Z 17004KT 19/14 A2995 RMK A01 T01880140  RH  073%=      5-min Rain = 0
KLO1 151146Z 17004KT 19/14 A2995 RMK A01 T01880139  RH  073%=      5-min Rain = 0
KLO1 151147Z 17004KT 19/14 A2995 RMK A01 T01880139  RH  073%=      5-min Rain = 0
KLO1 151148Z 17004KT 19/14 A2995 RMK A01 T01880139  RH  073%=      5-min Rain = 0
KLO1 151149Z 16005KT 19/14 A2995 RMK A01 T01870138  RH  073%=      5-min Rain = 0
KLO1 151150Z 16005KT 19/14 A2995 RMK A01 T01870138  RH  074%=      5-min Rain = 0
KLO1 151151Z 17004KT 19/14 A2995 RMK A01 T01860138  RH  074%=      5-min Rain = 0
KLO1 151152Z 17004KT 19/14 A2995 RMK A01 T01850138  RH  074%=      5-min Rain = 0
KLO1 151153Z 18004KT 18/14 A2995 RMK A01 T01840138  RH  074%=      5-min Rain = 0
KLO1 151154Z 18004KT 18/14 A2995 RMK A01 T01840138  RH  074%=      5-min Rain = 0
KLO1 151155Z 18004KT 18/14 A2995 RMK A01 T01840138  RH  074%=      5-min Rain = 0
KLO1 151156Z 18005KT 18/14 A2995 RMK A01 T01840138  RH  074%=      5-min Rain = 0
KLO1 151157Z 18005KT 18/14 A2995 RMK A01 T01840138  RH  075%=      5-min Rain = 0
KLO1 151158Z 18005KT 18/14 A2994 RMK A01 T01830137  RH  074%=      5-min Rain = 0
KLO1 151159Z 18005KT 18/14 A2994 RMK A01 T01830137  RH  075%=      5-min Rain = 0
KLO1 151200Z 18005KT 18/14 A2994 RMK A01 T01830137  RH  075%=      5-min Rain = 0
KLO1 151201Z 18006KT 18/14 A2994 RMK A01 T01830138  RH  075%=      5-min Rain = 0
KLO1 151202Z 19006KT 18/14 A2994 RMK A01 T01830138  RH  075%=      5-min Rain = 0
KLO1 151203Z 19006KT 18/14 A2994 RMK A01 T01830138  RH  075%=      5-min Rain = 0
KLO1 151204Z 19006KT 18/14 A2995 RMK A01 T01820138  RH  075%=      5-min Rain = 0
KLO1 151205Z 19006KT 18/14 A2995 RMK A01 T01830138  RH  075%=      5-min Rain = 0
KLO1 151206Z 19006KT 18/14 A2995 RMK A01 T01830138  RH  075%=      5-min Rain = 0
KLO1 151207Z 19006KT 18/14 A2995 RMK A01 T01840138  RH  075%=      5-min Rain = 0
KLO1 151208Z 18006KT 18/14 A2995 RMK A01 T01840139  RH  075%=      5-min Rain = 0
KLO1 151209Z 18006KT 18/14 A2995 RMK A01 T01840139  RH  075%=      5-min Rain = 0
KLO1 151210Z 18006KT 19/14 A2995 RMK A01 T01850139  RH  075%=      5-min Rain = 0
KLO1 151211Z 18006KT 19/14 A2995 RMK A01 T01850139  RH  074%=      5-min Rain = 0
KLO1 151212Z 18005KT 19/14 A2995 RMK A01 T01860139  RH  074%=      5-min Rain = 0
KLO1 151213Z 17005KT 19/14 A2995 RMK A01 T01850138  RH  074%=      5-min Rain = 0
KLO1 151214Z 17005KT 19/14 A2995 RMK A01 T01860139  RH  074%=      5-min Rain = 0
KLO1 151215Z 17005KT 19/14 A2995 RMK A01 T01860139  RH  074%=      5-min Rain = 0
KLO1 151216Z 17005KT 19/14 A2995 RMK A01 T01860138  RH  074%=      5-min Rain = 0
KLO1 151217Z 17005KT 19/14 A2995 RMK A01 T01860139  RH  074%=      5-min Rain = 0
KLO1 151218Z 17005KT 19/14 A2995 RMK A01 T01860138  RH  073%=      5-min Rain = 0
KLO1 151219Z 17006KT 19/14 A2995 RMK A01 T01860138  RH  073%=      5-min Rain = 0
KLO1 151220Z 17006KT 19/14 A2995 RMK A01 T01860137  RH  073%=      5-min Rain = 0
KLO1 151221Z 16005KT 19/14 A2995 RMK A01 T01850137  RH  074%=      5-min Rain = 0
KLO1 151222Z 17005KT 19/14 A2995 RMK A01 T01850137  RH  074%=      5-min Rain = 0
KLO1 151223Z 17006KT 19/14 A2995 RMK A01 T01850137  RH  074%=      5-min Rain = 0
KLO1 151224Z 17006KT 19/14 A2995 RMK A01 T01850138  RH  074%=      5-min Rain = 0
KLO1 151225Z 17006KT 19/14 A2995 RMK A01 T01850138  RH  074%=      5-min Rain = 0
KLO1 151226Z 17006KT 19/14 A2995 RMK A01 T01850138  RH  074%=      5-min Rain = 0
KLO1 151227Z 17005KT 19/14 A2995 RMK A01 T01850139  RH  074%=      5-min Rain = 0
KLO1 151228Z 17005KT 19/14 A2995 RMK A01 T01850139  RH  074%=      5-min Rain = 0
KLO1 151229Z 17005KT 19/14 A2995 RMK A01 T01860139  RH  074%=      5-min Rain = 0
KLO1 151230Z 17005KT 19/14 A2995 RMK A01 T01860139  RH  074%=      5-min Rain = 0
KLO1 151231Z 17004KT 19/14 A2995 RMK A01 T01860139  RH  074%=      5-min Rain = 0
KLO1 151232Z 17004KT 19/14 A2995 RMK A01 T01860139  RH  074%=      5-min Rain = 0
KLO1 151233Z 17003KT 19/14 A2995 RMK A01 T01870139  RH  074%=      5-min Rain = 0
KLO1 151234Z 18003KT 19/14 A2995 RMK A01 T01870140  RH  074%=      5-min Rain = 0
KLO1 151235Z 18003KT 19/14 A2995 RMK A01 T01880140  RH  074%=      5-min Rain = 0
KLO1 151236Z 18003KT 19/14 A2995 RMK A01 T01880140  RH  073%=      5-min Rain = 0
KLO1 151237Z 18003KT 19/14 A2995 RMK A01 T01890140  RH  073%=      5-min Rain = 0
KLO1 151238Z 18003KT 19/14 A2995 RMK A01 T01900140  RH  073%=      5-min Rain = 0
KLO1 151239Z 17004KT 19/14 A2996 RMK A01 T01910141  RH  073%=      5-min Rain = 0
KLO1 151240Z 17004KT 19/14 A2996 RMK A01 T01910141  RH  072%=      5-min Rain = 0
KLO1 151241Z 17005KT 19/14 A2996 RMK A01 T01920141  RH  072%=      5-min Rain = 0
KLO1 151242Z 17005KT 19/14 A2996 RMK A01 T01930141  RH  072%=      5-min Rain = 0
KLO1 151243Z 18004KT 19/14 A2996 RMK A01 T01930141  RH  072%=      5-min Rain = 0
KLO1 151244Z 18004KT 19/14 A2996 RMK A01 T01930142  RH  072%=      5-min Rain = 0
KLO1 151245Z 18004KT 19/14 A2996 RMK A01 T01940142  RH  072%=      5-min Rain = 0
KLO1 151246Z 18004KT 20/14 A2996 RMK A01 T01950142  RH  072%=      5-min Rain = 0
KLO1 151247Z 18005KT 20/14 A2996 RMK A01 T01950143  RH  071%=      5-min Rain = 0
KLO1 151248Z 18004KT 20/14 A2996 RMK A01 T01960143  RH  071%=      5-min Rain = 0
KLO1 151249Z 18005KT 20/14 A2996 RMK A01 T01960143  RH  071%=      5-min Rain = 0
KLO1 151250Z 18005KT 20/14 A2996 RMK A01 T01970143  RH  071%=      5-min Rain = 0
KLO1 151251Z 17005KT 20/14 A2996 RMK A01 T01970143  RH  071%=      5-min Rain = 0
KLO1 151252Z 18004KT 20/14 A2996 RMK A01 T01980143  RH  071%=      5-min Rain = 0
KLO1 151253Z 17003KT 20/14 A2996 RMK A01 T01980144  RH  071%=      5-min Rain = 0
KLO1 151254Z 17006KT 20/14 A2996 RMK A01 T01990144  RH  071%=      5-min Rain = 0
KLO1 151255Z 18006KT 20/14 A2996 RMK A01 T02000144  RH  070%=      5-min Rain = 0
KLO1 151256Z 17006KT 20/14 A2996 RMK A01 T02000144  RH  070%=      5-min Rain = 0
KLO1 151257Z 18005KT 20/15 A2996 RMK A01 T02000145  RH  070%=      5-min Rain = 0
KLO1 151258Z 18006KT 20/15 A2996 RMK A01 T02010145  RH  070%=      5-min Rain = 0
KLO1 151259Z 18006KT 20/15 A2996 RMK A01 T02010145  RH  070%=      5-min Rain = 0
KLO1 151300Z 17007KT 20/15 A2996 RMK A01 T02020145  RH  070%=      5-min Rain = 0
KLO1 151301Z 18007KT 20/15 A2996 RMK A01 T02020146  RH  070%=      5-min Rain = 0
KLO1 151302Z 18005KT 20/15 A2996 RMK A01 T02030146  RH  070%=      5-min Rain = 0
KLO1 151303Z 18007KT 20/15 A2996 RMK A01 T02040147  RH  070%=      5-min Rain = 0
KLO1 151304Z 17006KT 20/15 A2996 RMK A01 T02040147  RH  070%=      5-min Rain = 0
KLO1 151305Z 17006KT 21/15 A2996 RMK A01 T02050147  RH  070%=      5-min Rain = 0
KLO1 151306Z 17006KT 21/15 A2996 RMK A01 T02050148  RH  069%=      5-min Rain = 0
KLO1 151307Z 17007KT 21/15 A2996 RMK A01 T02060148  RH  069%=      5-min Rain = 0
KLO1 151308Z 18007KT 21/15 A2996 RMK A01 T02060148  RH  069%=      5-min Rain = 0
KLO1 151309Z 17007KT 21/15 A2996 RMK A01 T02070149  RH  069%=      5-min Rain = 0
KLO1 151310Z 17008KT 21/15 A2996 RMK A01 T02080150  RH  069%=      5-min Rain = 0
KLO1 151311Z 17008KT 21/15 A2996 RMK A01 T02090151  RH  069%=      5-min Rain = 0
KLO1 151312Z 17007KT 21/15 A2996 RMK A01 T02100151  RH  069%=      5-min Rain = 0
KLO1 151313Z 18007KT 21/15 A2996 RMK A01 T02100151  RH  069%=      5-min Rain = 0
KLO1 151314Z 17008KT 21/15 A2996 RMK A01 T02110152  RH  069%=      5-min Rain = 0
KLO1 151315Z 17008KT 21/15 A2996 RMK A01 T02120152  RH  069%=      5-min Rain = 0
KLO1 151316Z 17008KT 21/15 A2996 RMK A01 T02120152  RH  069%=      5-min Rain = 0
KLO1 151317Z 16009KT 21/15 A2996 RMK A01 T02130153  RH  069%=      5-min Rain = 0
KLO1 151318Z 17007KT 21/15 A2996 RMK A01 T02130153  RH  069%=      5-min Rain = 0
KLO1 151319Z 17010KT 21/15 A2996 RMK A01 T02140154  RH  069%=      5-min Rain = 0
KLO1 151320Z 17010KT 21/15 A2996 RMK A01 T02140154  RH  069%=      5-min Rain = 0
KLO1 151321Z 18008KT 21/15 A2996 RMK A01 T02140154  RH  069%=      5-min Rain = 0
KLO1 151322Z 17008KT 22/15 A2996 RMK A01 T02150154  RH  068%=      5-min Rain = 0
KLO1 151323Z 17008KT 22/15 A2996 RMK A01 T02150154  RH  068%=      5-min Rain = 0
KLO1 151324Z 17008KT 22/16 A2996 RMK A01 T02170155  RH  068%=      5-min Rain = 0
KLO1 151325Z 17007KT 22/16 A2996 RMK A01 T02170156  RH  068%=      5-min Rain = 0
KLO1 151326Z 18007KT 22/16 A2996 RMK A01 T02180155  RH  068%=      5-min Rain = 0
KLO1 151327Z 17007KT 22/16 A2996 RMK A01 T02180156  RH  068%=      5-min Rain = 0
KLO1 151328Z 16008KT 22/16 A2996 RMK A01 T02190156  RH  067%=      5-min Rain = 0
KLO1 151329Z 17008KT 22/16 A2996 RMK A01 T02190156  RH  067%=      5-min Rain = 0
KLO1 151330Z 16011KT 22/16 A2996 RMK A01 T02200157  RH  067%=      5-min Rain = 0
KLO1 151331Z 16011KT 22/16 A2996 RMK A01 T02200157  RH  067%=      5-min Rain = 0
KLO1 151332Z 17010KT 22/16 A2996 RMK A01 T02190157  RH  068%=      5-min Rain = 0
KLO1 151333Z 17010KT 22/16 A2996 RMK A01 T02190157  RH  068%=      5-min Rain = 0
KLO1 151334Z 18010KT 22/16 A2996 RMK A01 T02190157  RH  068%=      5-min Rain = 0
KLO1 151335Z 17009KT 22/16 A2996 RMK A01 T02190157  RH  068%=      5-min Rain = 0
KLO1 151336Z 17010KT 22/16 A2996 RMK A01 T02200158  RH  068%=      5-min Rain = 0
KLO1 151337Z 16010KT 22/16 A2996 RMK A01 T02210159  RH  068%=      5-min Rain = 0
KLO1 151338Z 16011KT 22/16 A2996 RMK A01 T02210159  RH  068%=      5-min Rain = 0
KLO1 151339Z 16009KT 22/16 A2996 RMK A01 T02210159  RH  068%=      5-min Rain = 0
KLO1 151340Z 16009KT 22/16 A2996 RMK A01 T02220160  RH  068%=      5-min Rain = 0
KLO1 151341Z 17010KT 22/16 A2996 RMK A01 T02230160  RH  068%=      5-min Rain = 0
KLO1 151342Z 17010KT 22/16 A2996 RMK A01 T02230161  RH  068%=      5-min Rain = 0
KLO1 151343Z 18010KT 22/16 A2996 RMK A01 T02240161  RH  068%=      5-min Rain = 0
KLO1 151344Z 17009KT 22/16 A2996 RMK A01 T02240162  RH  068%=      5-min Rain = 0
KLO1 151345Z 17010KT 23/16 A2996 RMK A01 T02250162  RH  068%=      5-min Rain = 0
KLO1 151346Z 18011KT 23/16 A2996 RMK A01 T02250163  RH  068%=      5-min Rain = 0
KLO1 151347Z 18010KT 23/16 A2996 RMK A01 T02250163  RH  068%=      5-min Rain = 0
KLO1 151348Z 18010KT 23/16 A2996 RMK A01 T02250163  RH  068%=      5-min Rain = 0
KLO1 151349Z 18008KT 23/16 A2996 RMK A01 T02260164  RH  068%=      5-min Rain = 0
KLO1 151350Z 17007KT 23/16 A2996 RMK A01 T02260164  RH  068%=      5-min Rain = 0
KLO1 151351Z 18009KT 23/17 A2996 RMK A01 T02280165  RH  067%=      5-min Rain = 0
KLO1 151352Z 18010KT 23/17 A2996 RMK A01 T02290165  RH  067%=      5-min Rain = 0
KLO1 151353Z 19010KT 23/17 A2996 RMK A01 T02300166  RH  067%=      5-min Rain = 0
KLO1 151354Z 18009KT 23/17 A2996 RMK A01 T02290165  RH  067%=      5-min Rain = 0
KLO1 151355Z 17010KT 23/17 A2996 RMK A01 T02290166  RH  067%=      5-min Rain = 0
KLO1 151356Z 18010KT 23/17 A2996 RMK A01 T02300166  RH  067%=      5-min Rain = 0
KLO1 151357Z 19013KT 23/17 A2996 RMK A01 T02310167  RH  067%=      5-min Rain = 0
KLO1 151358Z 18012KT 23/17 A2996 RMK A01 T02310168  RH  067%=      5-min Rain = 0
KLO1 151359Z 18010KT 23/17 A2997 RMK A01 T02310168  RH  067%=      5-min Rain = 0
KLO1 151400Z 18009KT 23/17 A2997 RMK A01 T02310167  RH  067%=      5-min Rain = 0
KLO1 151401Z 19010KT 23/17 A2997 RMK A01 T02310168  RH  068%=      5-min Rain = 0
KLO1 151402Z 19011KT 23/17 A2997 RMK A01 T02320169  RH  068%=      5-min Rain = 0
KLO1 151403Z 19013KT 23/17 A2997 RMK A01 T02320169  RH  068%=      5-min Rain = 0
KLO1 151404Z 19013KT 23/17 A2997 RMK A01 T02330169  RH  067%=      5-min Rain = 0
KLO1 151405Z 19012KT 23/17 A2997 RMK A01 T02330169  RH  067%=      5-min Rain = 0
KLO1 151406Z 19011KT 23/17 A2997 RMK A01 T02330169  RH  067%=      5-min Rain = 0
KLO1 151407Z 18011KT 23/17 A2997 RMK A01 T02320169  RH  068%=      5-min Rain = 0
KLO1 151408Z 19012KT 23/17 A2997 RMK A01 T02330169  RH  067%=      5-min Rain = 0
KLO1 151409Z 18011KT 23/17 A2997 RMK A01 T02340169  RH  067%=      5-min Rain = 0
KLO1 151410Z 18011KT 24/17 A2997 RMK A01 T02350170  RH  067%=      5-min Rain = 0
KLO1 151411Z 20010KT 24/17 A2997 RMK A01 T02350170  RH  067%=      5-min Rain = 0
KLO1 151412Z 19009KT 24/17 A2997 RMK A01 T02370170  RH  066%=      5-min Rain = 0
KLO1 151413Z 19009KT 24/17 A2997 RMK A01 T02380171  RH  066%=      5-min Rain = 0
KLO1 151414Z 19011KT 24/17 A2997 RMK A01 T02390170  RH  065%=      5-min Rain = 0
KLO1 151415Z 18009KT 24/17 A2997 RMK A01 T02380170  RH  066%=      5-min Rain = 0
KLO1 151416Z 19009KT 24/17 A2997 RMK A01 T02390171  RH  066%=      5-min Rain = 0
KLO1 151417Z 19010KT 24/17 A2997 RMK A01 T02400171  RH  065%=      5-min Rain = 0
KLO1 151418Z 19011KT 24/17 A2997 RMK A01 T02400170  RH  065%=      5-min Rain = 0
KLO1 151419Z 19012KT 24/17 A2997 RMK A01 T02390170  RH  065%=      5-min Rain = 0
KLO1 151420Z 19009KT 24/17 A2997 RMK A01 T02380169  RH  065%=      5-min Rain = 0
KLO1 151421Z 19011KT 24/17 A2997 RMK A01 T02390170  RH  065%=      5-min Rain = 0
KLO1 151422Z 18010KT 24/17 A2997 RMK A01 T02410171  RH  065%=      5-min Rain = 0
KLO1 151423Z 18010KT 24/17 A2997 RMK A01 T02420170  RH  064%=      5-min Rain = 0
KLO1 151424Z 18011KT 24/17 A2997 RMK A01 T02420170  RH  064%=      5-min Rain = 0
KLO1 151425Z 18009KT 24/17 A2997 RMK A01 T02410170  RH  064%=      5-min Rain = 0
KLO1 151426Z 18009KT 24/17 A2997 RMK A01 T02420171  RH  065%=      5-min Rain = 0
KLO1 151427Z 18012KT 24/17 A2997 RMK A01 T02440171  RH  064%=      5-min Rain = 0
KLO1 151428Z 18013KT 25/17 A2997 RMK A01 T02450170  RH  063%=      5-min Rain = 0
KLO1 151429Z 19012KT 24/17 A2997 RMK A01 T02440170  RH  063%=      5-min Rain = 0
KLO1 151430Z 18012KT 24/17 A2997 RMK A01 T02430169  RH  063%=      5-min Rain = 0
KLO1 151431Z 19011KT 24/17 A2997 RMK A01 T02430169  RH  063%=      5-min Rain = 0
KLO1 151432Z 18012KT 24/17 A2997 RMK A01 T02420169  RH  064%=      5-min Rain = 0
KLO1 151433Z 18011KT 24/17 A2997 RMK A01 T02430169  RH  064%=      5-min Rain = 0
KLO1 151434Z 19010KT 24/17 A2997 RMK A01 T02440170  RH  063%=      5-min Rain = 0
KLO1 151435Z 18009KT 25/17 A2997 RMK A01 T02450171  RH  063%=      5-min Rain = 0
KLO1 151436Z 18009KT 25/17 A2997 RMK A01 T02460171  RH  063%=      5-min Rain = 0
KLO1 151437Z 20013KT 25/17 A2997 RMK A01 T02480170  RH  062%=      5-min Rain = 0
KLO1 151438Z 21011KT 25/17 A2997 RMK A01 T02470168  RH  061%=      5-min Rain = 0
KLO1 151439Z 20011KT 25/17 A2997 RMK A01 T02460168  RH  062%=      5-min Rain = 0
KLO1 151440Z 20010KT 25/17 A2997 RMK A01 T02470169  RH  062%=      5-min Rain = 0
KLO1 151441Z 20010KT 25/17 A2997 RMK A01 T02480169  RH  061%=      5-min Rain = 0
KLO1 151442Z 19009KT 25/17 A2997 RMK A01 T02480169  RH  061%=      5-min Rain = 0
KLO1 151443Z 19009KT 25/17 A2997 RMK A01 T02470169  RH  062%=      5-min Rain = 0
KLO1 151444Z 19011KT 25/17 A2997 RMK A01 T02470169  RH  062%=      5-min Rain = 0
KLO1 151445Z 19010KT 25/17 A2997 RMK A01 T02480169  RH  061%=      5-min Rain = 0
KLO1 151446Z 18009KT 25/17 A2997 RMK A01 T02480169  RH  061%=      5-min Rain = 0
KLO1 151447Z 19010KT 25/17 A2997 RMK A01 T02490169  RH  061%=      5-min Rain = 0
KLO1 151448Z 18011KT 25/17 A2997 RMK A01 T02490169  RH  061%=      5-min Rain = 0
KLO1 151449Z 19011KT 25/17 A2997 RMK A01 T02490168  RH  061%=      5-min Rain = 0
KLO1 151450Z 18010KT 25/17 A2997 RMK A01 T02500168  RH  060%=      5-min Rain = 0
KLO1 151451Z 18009KT 25/17 A2997 RMK A01 T02500168  RH  060%=      5-min Rain = 0
KLO1 151452Z 18009KT 25/17 A2997 RMK A01 T02500168  RH  060%=      5-min Rain = 0
KLO1 151453Z 20009KT 25/17 A2997 RMK A01 T02510168  RH  060%=      5-min Rain = 0
KLO1 151454Z 19009KT 25/17 A2997 RMK A01 T02520168  RH  060%=      5-min Rain = 0
KLO1 151455Z 18009KT 25/17 A2997 RMK A01 T02540169  RH  059%=      5-min Rain = 0
KLO1 151456Z 19010KT 25/17 A2997 RMK A01 T02540169  RH  059%=      5-min Rain = 0
KLO1 151457Z 19010KT 25/17 A2997 RMK A01 T02540168  RH  059%=      5-min Rain = 0
KLO1 151458Z 19008KT 25/17 A2997 RMK A01 T02540168  RH  059%=      5-min Rain = 0
KLO1 151459Z 19009KT 25/17 A2997 RMK A01 T02530168  RH  059%=      5-min Rain = 0
KLO1 151500Z 20008KT 25/17 A2997 RMK A01 T02540168  RH  059%=      5-min Rain = 0
KLO1 151501Z 20010KT 26/17 A2997 RMK A01 T02550169  RH  059%=      5-min Rain = 0
KLO1 151502Z 20012KT 26/17 A2997 RMK A01 T02570168  RH  058%=      5-min Rain = 0
KLO1 151503Z 20011KT 26/17 A2997 RMK A01 T02560168  RH  058%=      5-min Rain = 0
KLO1 151504Z 20010KT 26/17 A2997 RMK A01 T02560168  RH  058%=      5-min Rain = 0
KLO1 151505Z 20008KT 26/17 A2997 RMK A01 T02560167  RH  058%=      5-min Rain = 0
KLO1 151506Z 21011KT 26/17 A2997 RMK A01 T02550167  RH  058%=      5-min Rain = 0
KLO1 151507Z 21011KT 26/17 A2997 RMK A01 T02560165  RH  057%=      5-min Rain = 0
KLO1 151508Z 21009KT 26/17 A2997 RMK A01 T02570166  RH  057%=      5-min Rain = 0
KLO1 151509Z 21011KT 26/17 A2997 RMK A01 T02590167  RH  057%=      5-min Rain = 0
KLO1 151510Z 20011KT 26/17 A2997 RMK A01 T02610167  RH  056%=      5-min Rain = 0
KLO1 151511Z 21010KT 26/17 A2997 RMK A01 T02630166  RH  055%=      5-min Rain = 0
KLO1 151512Z 20009KT 26/17 A2997 RMK A01 T02630167  RH  056%=      5-min Rain = 0
KLO1 151513Z 22009KT 26/17 A2997 RMK A01 T02620167  RH  056%=      5-min Rain = 0
KLO1 151514Z 21009KT 26/17 A2997 RMK A01 T02630167  RH  056%=      5-min Rain = 0
KLO1 151515Z 21007KT 26/17 A2997 RMK A01 T02620168  RH  056%=      5-min Rain = 0
KLO1 151516Z 21008KT 26/17 A2997 RMK A01 T02620169  RH  056%=      5-min Rain = 0
KLO1 151517Z 20010KT 27/17 A2997 RMK A01 T02650169  RH  056%=      5-min Rain = 0
KLO1 151518Z 19007KT 27/17 A2997 RMK A01 T02660168  RH  055%=      5-min Rain = 0
KLO1 151519Z 20008KT 26/17 A2997 RMK A01 T02640167  RH  055%=      5-min Rain = 0
KLO1 151520Z 21009KT 27/17 A2997 RMK A01 T02650167  RH  055%=      5-min Rain = 0
KLO1 151521Z 20007KT 27/17 A2997 RMK A01 T02660168  RH  055%=      5-min Rain = 0
KLO1 151522Z 21009KT 27/17 A2997 RMK A01 T02690167  RH  054%=      5-min Rain = 0
KLO1 151523Z 21008KT 27/17 A2997 RMK A01 T02700167  RH  053%=      5-min Rain = 0
KLO1 151524Z 22009KT 27/17 A2997 RMK A01 T02700167  RH  053%=      5-min Rain = 0
KLO1 151525Z 22010KT 27/17 A2997 RMK A01 T02690167  RH  053%=      5-min Rain = 0
KLO1 151526Z 22008KT 27/17 A2997 RMK A01 T02680167  RH  054%=      5-min Rain = 0
KLO1 151527Z 22008KT 27/17 A2997 RMK A01 T02680168  RH  054%=      5-min Rain = 0
KLO1 151528Z 23006KT 27/17 A2997 RMK A01 T02680167  RH  054%=      5-min Rain = 0
KLO1 151529Z 22008KT 27/17 A2997 RMK A01 T02680168  RH  054%=      5-min Rain = 0
KLO1 151530Z 20010KT 27/17 A2997 RMK A01 T02700166  RH  053%=      5-min Rain = 0
KLO1 151531Z 20008KT 27/17 A2997 RMK A01 T02690166  RH  053%=      5-min Rain = 0
KLO1 151532Z 21006KT 27/17 A2997 RMK A01 T02690166  RH  053%=      5-min Rain = 0
KLO1 151533Z 20007KT 27/17 A2997 RMK A01 T02680166  RH  054%=      5-min Rain = 0
KLO1 151534Z 20008KT 27/17 A2997 RMK A01 T02700166  RH  053%=      5-min Rain = 0
KLO1 151535Z 21007KT 27/17 A2997 RMK A01 T02720166  RH  052%=      5-min Rain = 0
KLO1 151536Z 21007KT 27/17 A2997 RMK A01 T02700165  RH  052%=      5-min Rain = 0
KLO1 151537Z 19007KT 27/17 A2997 RMK A01 T02700166  RH  053%=      5-min Rain = 0
KLO1 151538Z 20009KT 27/17 A2997 RMK A01 T02710166  RH  053%=      5-min Rain = 0
KLO1 151539Z 19010KT 27/17 A2997 RMK A01 T02740166  RH  052%=      5-min Rain = 0
KLO1 151540Z 19008KT 27/17 A2997 RMK A01 T02740166  RH  052%=      5-min Rain = 0
KLO1 151541Z 20007KT 27/17 A2997 RMK A01 T02740166  RH  052%=      5-min Rain = 0
KLO1 151542Z 21007KT 28/17 A2998 RMK A01 T02750165  RH  051%=      5-min Rain = 0
KLO1 151543Z 21010KT 28/17 A2998 RMK A01 T02770167  RH  051%=      5-min Rain = 0
KLO1 151544Z 20010KT 28/17 A2998 RMK A01 T02780165  RH  050%=      5-min Rain = 0
KLO1 151545Z 20008KT 28/17 A2998 RMK A01 T02790165  RH  050%=      5-min Rain = 0
KLO1 151546Z 22008KT 28/17 A2998 RMK A01 T02780166  RH  051%=      5-min Rain = 0
KLO1 151547Z 22009KT 28/17 A2998 RMK A01 T02780166  RH  051%=      5-min Rain = 0
KLO1 151548Z 21007KT 28/17 A2998 RMK A01 T02770165  RH  050%=      5-min Rain = 0
KLO1 151549Z 21007KT 28/17 A2998 RMK A01 T02780165  RH  050%=      5-min Rain = 0
KLO1 151550Z 22008KT 28/17 A2998 RMK A01 T02790165  RH  050%=      5-min Rain = 0
KLO1 151551Z 21011KT 28/16 A2998 RMK A01 T02800163  RH  049%=      5-min Rain = 0
KLO1 151552Z 20009KT 28/16 A2998 RMK A01 T02790163  RH  049%=      5-min Rain = 0
KLO1 151553Z 20005KT 28/16 A2998 RMK A01 T02790161  RH  049%=      5-min Rain = 0
KLO1 151554Z 19005KT 28/16 A2998 RMK A01 T02780162  RH  049%=      5-min Rain = 0
KLO1 151555Z 19008KT 28/16 A2998 RMK A01 T02800163  RH  049%=      5-min Rain = 0
KLO1 151556Z 20009KT 28/16 A2998 RMK A01 T02800164  RH  049%=      5-min Rain = 0
KLO1 151557Z 20007KT 28/16 A2998 RMK A01 T02810164  RH  049%=      5-min Rain = 0
KLO1 151558Z 21008KT 28/17 A2998 RMK A01 T02810165  RH  049%=      5-min Rain = 0
KLO1 151559Z 20008KT 29/17 A2998 RMK A01 T02860165  RH  048%=      5-min Rain = 0
KLO1 151600Z 21009KT 29/16 A2998 RMK A01 T02870164  RH  047%=      5-min Rain = 0
KLO1 151601Z 22008KT 29/16 A2998 RMK A01 T02880164  RH  047%=      5-min Rain = 0
KLO1 151602Z 23006KT 29/16 A2998 RMK A01 T02860163  RH  047%=      5-min Rain = 0
KLO1 151603Z 25005KT 28/16 A2998 RMK A01 T02830163  RH  048%=      5-min Rain = 0
KLO1 151604Z 24006KT 28/16 A2998 RMK A01 T02810163  RH  049%=      5-min Rain = 0
KLO1 151605Z 23007KT 28/16 A2998 RMK A01 T02820163  RH  049%=      5-min Rain = 0
KLO1 151606Z 20008KT 28/16 A2998 RMK A01 T02840163  RH  048%=      5-min Rain = 0
KLO1 151607Z 20005KT 28/16 A2998 RMK A01 T02840161  RH  047%=      5-min Rain = 0
KLO1 151608Z 19006KT 28/16 A2998 RMK A01 T02830161  RH  048%=      5-min Rain = 0
KLO1 151609Z 20008KT 28/16 A2998 RMK A01 T02830160  RH  047%=      5-min Rain = 0
KLO1 151610Z 21005KT 29/16 A2998 RMK A01 T02850160  RH  047%=      5-min Rain = 0
KLO1 151611Z 22006KT 29/16 A2998 RMK A01 T02860161  RH  047%=      5-min Rain = 0
KLO1 151612Z 22010KT 29/16 A2998 RMK A01 T02880162  RH  046%=      5-min Rain = 0
KLO1 151613Z 22008KT 29/16 A2998 RMK A01 T02900162  RH  046%=      5-min Rain = 0
KLO1 151614Z 23005KT 29/16 A2998 RMK A01 T02890161  RH  046%=      5-min Rain = 0
KLO1 151615Z 21007KT 29/16 A2998 RMK A01 T02880161  RH  046%=      5-min Rain = 0
KLO1 151616Z 21010KT 29/16 A2998 RMK A01 T02880161  RH  046%=      5-min Rain = 0
KLO1 151617Z 22010KT 29/16 A2998 RMK A01 T02890163  RH  047%=      5-min Rain = 0
KLO1 151618Z 22008KT 29/16 A2998 RMK A01 T02890163  RH  046%=      5-min Rain = 0
KLO1 151619Z 23005KT 29/16 A2998 RMK A01 T02890162  RH  046%=      5-min Rain = 0
KLO1 151620Z 23005KT 29/16 A2998 RMK A01 T02890163  RH  047%=      5-min Rain = 0
KLO1 151621Z 20005KT 29/16 A2998 RMK A01 T02890164  RH  047%=      5-min Rain = 0
KLO1 151622Z 19004KT 29/16 A2998 RMK A01 T02890163  RH  046%=      5-min Rain = 0
KLO1 151623Z 17003KT 29/16 A2998 RMK A01 T02890163  RH  047%=      5-min Rain = 0
KLO1 151624Z 22004KT 29/16 A2998 RMK A01 T02890163  RH  046%=      5-min Rain = 0
KLO1 151625Z 25004KT 29/16 A2998 RMK A01 T02900164  RH  046%=      5-min Rain = 0
KLO1 151626Z 27002KT 29/16 A2998 RMK A01 T02930164  RH  046%=      5-min Rain = 0
KLO1 151627Z 21003KT 29/16 A2998 RMK A01 T02940164  RH  045%=      5-min Rain = 0
KLO1 151628Z 23006KT 30/16 A2998 RMK A01 T02960164  RH  045%=      5-min Rain = 0
KLO1 151629Z 21007KT 30/16 A2998 RMK A01 T02980164  RH  044%=      5-min Rain = 0
KLO1 151630Z 18006KT 30/16 A2998 RMK A01 T02990164  RH  044%=      5-min Rain = 0
KLO1 151631Z 17007KT 30/16 A2998 RMK A01 T02990164  RH  044%=      5-min Rain = 0
KLO1 151632Z 18008KT 30/16 A2998 RMK A01 T02990164  RH  044%=      5-min Rain = 0
KLO1 151633Z 23006KT 30/16 A2998 RMK A01 T02990163  RH  044%=      5-min Rain = 0
KLO1 151634Z 22006KT 30/16 A2998 RMK A01 T02970162  RH  044%=      5-min Rain = 0
KLO1 151635Z 24006KT 30/16 A2998 RMK A01 T02990164  RH  044%=      5-min Rain = 0
KLO1 151636Z 23006KT 30/16 A2998 RMK A01 T03020164  RH  043%=      5-min Rain = 0
KLO1 151637Z 23005KT 30/16 A2998 RMK A01 T03020162  RH  043%=      5-min Rain = 0
KLO1 151638Z 21005KT 30/16 A2998 RMK A01 T03000162  RH  043%=      5-min Rain = 0
KLO1 151639Z 20005KT 30/16 A2998 RMK A01 T03000161  RH  043%=      5-min Rain = 0
KLO1 151640Z 18005KT 30/16 A2998 RMK A01 T02990163  RH  044%=      5-min Rain = 0
KLO1 151641Z 22009KT 30/16 A2998 RMK A01 T03020161  RH  042%=      5-min Rain = 0
KLO1 151642Z 24010KT 31/16 A2998 RMK A01 T03080159  RH  041%=      5-min Rain = 0
KLO1 151643Z 25009KT 31/16 A2998 RMK A01 T03090159  RH  040%=      5-min Rain = 0
KLO1 151644Z 24008KT 31/16 A2998 RMK A01 T03070158  RH  041%=      5-min Rain = 0
KLO1 151645Z 25006KT 31/16 A2998 RMK A01 T03050160  RH  042%=      5-min Rain = 0
KLO1 151646Z 27005KT 30/16 A2998 RMK A01 T03040161  RH  042%=      5-min Rain = 0
KLO1 151647Z 28006KT 30/16 A2998 RMK A01 T03040161  RH  042%=      5-min Rain = 0
KLO1 151648Z 27005KT 31/16 A2998 RMK A01 T03050162  RH  042%=      5-min Rain = 0
KLO1 151649Z 26004KT 31/16 A2998 RMK A01 T03050162  RH  042%=      5-min Rain = 0
KLO1 151650Z 22004KT 31/16 A2998 RMK A01 T03050162  RH  042%=      5-min Rain = 0
KLO1 151651Z 19006KT 31/16 A2998 RMK A01 T03070161  RH  041%=      5-min Rain = 0
KLO1 151652Z 23006KT 31/16 A2998 RMK A01 T03070160  RH  041%=      5-min Rain = 0
KLO1 151653Z 23004KT 31/16 A2998 RMK A01 T03080156  RH  040%=      5-min Rain = 0
KLO1 151654Z 22004KT 31/16 A2998 RMK A01 T03080155  RH  040%=      5-min Rain = 0
KLO1 151655Z 22007KT 31/16 A2998 RMK A01 T03060158  RH  041%=      5-min Rain = 0
KLO1 151656Z 22010KT 31/16 A2998 RMK A01 T03090160  RH  041%=      5-min Rain = 0
KLO1 151657Z 23011KT 31/16 A2998 RMK A01 T03100160  RH  040%=      5-min Rain = 0
KLO1 151658Z 22009KT 31/16 A2998 RMK A01 T03100158  RH  040%=      5-min Rain = 0
KLO1 151659Z 22006KT 31/16 A2998 RMK A01 T03080158  RH  040%=      5-min Rain = 0
KLO1 151700Z 20004KT 31/16 A2998 RMK A01 T03070158  RH  041%=      5-min Rain = 0
KLO1 151701Z 20005KT 31/16 A2998 RMK A01 T03080158  RH  040%=      5-min Rain = 0
KLO1 151702Z 20003KT 31/16 A2998 RMK A01 T03100158  RH  040%=      5-min Rain = 0
KLO1 151703Z 17004KT 31/16 A2998 RMK A01 T03110158  RH  040%=      5-min Rain = 0
KLO1 151704Z 17005KT 31/16 A2998 RMK A01 T03120158  RH  039%=      5-min Rain = 0
KLO1 151705Z 18003KT 31/16 A2998 RMK A01 T03110157  RH  039%=      5-min Rain = 0
KLO1 151706Z 23006KT 31/16 A2998 RMK A01 T03110157  RH  040%=      5-min Rain = 0
KLO1 151707Z 26004KT 31/15 A2998 RMK A01 T03120154  RH  038%=      5-min Rain = 0
KLO1 151708Z 26003KT 31/15 A2998 RMK A01 T03120154  RH  039%=      5-min Rain = 0
KLO1 151709Z 24003KT 31/15 A2998 RMK A01 T03130154  RH  038%=      5-min Rain = 0
KLO1 151710Z 22004KT 32/16 A2998 RMK A01 T03160155  RH  038%=      5-min Rain = 0
KLO1 151711Z 22007KT 32/16 A2998 RMK A01 T03170156  RH  038%=      5-min Rain = 0
KLO1 151712Z 22005KT 32/16 A2998 RMK A01 T03170157  RH  038%=      5-min Rain = 0
KLO1 151713Z 22007KT 32/16 A2998 RMK A01 T03170156  RH  038%=      5-min Rain = 0
KLO1 151714Z 22006KT 32/16 A2998 RMK A01 T03190156  RH  038%=      5-min Rain = 0
KLO1 151715Z 24004KT 32/16 A2998 RMK A01 T03170156  RH  038%=      5-min Rain = 0
KLO1 151716Z 23003KT 32/15 A2998 RMK A01 T03150154  RH  038%=      5-min Rain = 0
KLO1 151717Z 22002KT 31/16 A2998 RMK A01 T03140155  RH  038%=      5-min Rain = 0
KLO1 151718Z 18005KT 31/16 A2998 RMK A01 T03140155  RH  038%=      5-min Rain = 0
KLO1 151719Z 15005KT 32/16 A2997 RMK A01 T03150155  RH  038%=      5-min Rain = 0
KLO1 151720Z 19004KT 32/16 A2997 RMK A01 T03160156  RH  038%=      5-min Rain = 0
KLO1 151721Z 21003KT 32/16 A2997 RMK A01 T03180157  RH  038%=      5-min Rain = 0
KLO1 151722Z 14003KT 32/16 A2997 RMK A01 T03190157  RH  038%=      5-min Rain = 0
KLO1 151723Z 13003KT 32/16 A2997 RMK A01 T03210155  RH  037%=      5-min Rain = 0
KLO1 151724Z 15005KT 32/16 A2997 RMK A01 T03210155  RH  037%=      5-min Rain = 0
KLO1 151725Z 18004KT 32/15 A2997 RMK A01 T03240154  RH  036%=      5-min Rain = 0
KLO1 151726Z 27007KT 33/15 A2997 RMK A01 T03280153  RH  035%=      5-min Rain = 0
KLO1 151727Z 24007KT 33/15 A2997 RMK A01 T03270149  RH  034%=      5-min Rain = 0
KLO1 151728Z 23008KT 33/15 A2997 RMK A01 T03250150  RH  035%=      5-min Rain = 0
KLO1 151729Z 22008KT 33/15 A2997 RMK A01 T03250152  RH  035%=      5-min Rain = 0
KLO1 151730Z 21006KT 33/15 A2997 RMK A01 T03260153  RH  035%=      5-min Rain = 0
KLO1 151731Z 18005KT 33/15 A2997 RMK A01 T03270151  RH  035%=      5-min Rain = 0
KLO1 151732Z 17004KT 32/15 A2997 RMK A01 T03240149  RH  035%=      5-min Rain = 0
KLO1 151733Z 20006KT 32/15 A2997 RMK A01 T03240150  RH  035%=      5-min Rain = 0
KLO1 151734Z 21007KT 33/15 A2997 RMK A01 T03260147  RH  034%=      5-min Rain = 0
KLO1 151735Z 20007KT 33/15 A2997 RMK A01 T03250145  RH  034%=      5-min Rain = 0
KLO1 151736Z 22006KT 32/14 A2997 RMK A01 T03240144  RH  034%=      5-min Rain = 0
KLO1 151737Z 25004KT 32/15 A2996 RMK A01 T03240146  RH  034%=      5-min Rain = 0
KLO1 151738Z 21003KT 32/15 A2996 RMK A01 T03240147  RH  034%=      5-min Rain = 0
KLO1 151739Z 21004KT 33/14 A2996 RMK A01 T03260144  RH  033%=      5-min Rain = 0
KLO1 151740Z 20008KT 33/14 A2996 RMK A01 T03270140  RH  032%=      5-min Rain = 0
KLO1 151741Z 23009KT 33/14 A2996 RMK A01 T03320141  RH  031%=      5-min Rain = 0
KLO1 151742Z 24008KT 34/14 A2996 RMK A01 T03350139  RH  031%=      5-min Rain = 0
KLO1 151743Z 23010KT 34/14 A2996 RMK A01 T03360139  RH  031%=      5-min Rain = 0
KLO1 151744Z 23006KT 33/14 A2996 RMK A01 T03330136  RH  030%=      5-min Rain = 0
KLO1 151745Z 21006KT 33/14 A2996 RMK A01 T03320139  RH  031%=      5-min Rain = 0
KLO1 151746Z 23005KT 33/14 A2996 RMK A01 T03330141  RH  031%=      5-min Rain = 0
KLO1 151747Z 22004KT 33/14 A2996 RMK A01 T03340142  RH  031%=      5-min Rain = 0
KLO1 151748Z 24003KT 33/14 A2996 RMK A01 T03340142  RH  031%=      5-min Rain = 0
KLO1 151749Z 23005KT 34/14 A2996 RMK A01 T03350142  RH  031%=      5-min Rain = 0
KLO1 151750Z 25006KT 34/14 A2996 RMK A01 T03350142  RH  031%=      5-min Rain = 0
KLO1 151751Z 25003KT 34/14 A2996 RMK A01 T03360141  RH  031%=      5-min Rain = 0
KLO1 151752Z 23006KT 34/14 A2996 RMK A01 T03350142  RH  031%=      5-min Rain = 0
KLO1 151753Z 23006KT 33/14 A2996 RMK A01 T03340141  RH  031%=      5-min Rain = 0
KLO1 151754Z 24006KT 34/14 A2996 RMK A01 T03380141  RH  031%=      5-min Rain = 0
KLO1 151755Z 21003KT 34/14 A2996 RMK A01 T03440143  RH  030%=      5-min Rain = 0
KLO1 151756Z 21003KT 35/14 A2996 RMK A01 T03460142  RH  029%=      5-min Rain = 0
KLO1 151757Z 23004KT 34/14 A2996 RMK A01 T03430143  RH  030%=      5-min Rain = 0
KLO1 151758Z 25008KT 34/13 A2996 RMK A01 T03420133  RH  028%=      5-min Rain = 0
KLO1 151759Z 27007KT 34/13 A2996 RMK A01 T03420132  RH  028%=      5-min Rain = 0
KLO1 151800Z 23007KT 34/13 A2996 RMK A01 T03420133  RH  028%=      5-min Rain = 0
KLO1 151801Z 21006KT 35/13 A2996 RMK A01 T03450131  RH  028%=      5-min Rain = 0
KLO1 151802Z 19005KT 34/13 A2996 RMK A01 T03430128  RH  027%=      5-min Rain = 0
KLO1 151803Z 20004KT 34/13 A2995 RMK A01 T03400126  RH  027%=      5-min Rain = 0
KLO1 151804Z 22003KT 34/13 A2995 RMK A01 T03380127  RH  028%=      5-min Rain = 0
KLO1 151805Z 25004KT 34/13 A2995 RMK A01 T03380127  RH  028%=      5-min Rain = 0
KLO1 151806Z 27003KT 34/13 A2995 RMK A01 T03370126  RH  028%=      5-min Rain = 0
KLO1 151807Z 22004KT 34/13 A2995 RMK A01 T03360128  RH  028%=      5-min Rain = 0
KLO1 151808Z 19004KT 34/13 A2995 RMK A01 T03390134  RH  029%=      5-min Rain = 0
KLO1 151809Z 17003KT 34/13 A2995 RMK A01 T03390131  RH  029%=      5-min Rain = 0
KLO1 151810Z 18004KT 34/13 A2995 RMK A01 T03390130  RH  028%=      5-min Rain = 0
KLO1 151811Z 21006KT 34/13 A2995 RMK A01 T03410127  RH  027%=      5-min Rain = 0
KLO1 151812Z 24010KT 34/12 A2995 RMK A01 T03430122  RH  026%=      5-min Rain = 0
KLO1 151813Z 24007KT 34/12 A2995 RMK A01 T03430120  RH  026%=      5-min Rain = 0
KLO1 151814Z 24004KT 34/12 A2995 RMK A01 T03400120  RH  026%=      5-min Rain = 0
KLO1 151815Z 28003KT 34/12 A2995 RMK A01 T03410119  RH  026%=      5-min Rain = 0
KLO1 151816Z 25002KT 34/12 A2995 RMK A01 T03410120  RH  026%=      5-min Rain = 0
KLO1 151817Z 17005KT 34/13 A2995 RMK A01 T03420125  RH  027%=      5-min Rain = 0
KLO1 151818Z 19007KT 34/13 A2995 RMK A01 T03410133  RH  028%=      5-min Rain = 0
KLO1 151819Z 18009KT 35/14 A2995 RMK A01 T03450135  RH  028%=      5-min Rain = 0
KLO1 151820Z 20008KT 35/13 A2995 RMK A01 T03450134  RH  028%=      5-min Rain = 0
KLO1 151821Z 19006KT 35/13 A2995 RMK A01 T03450130  RH  027%=      5-min Rain = 0
KLO1 151822Z 18004KT 34/13 A2995 RMK A01 T03420129  RH  028%=      5-min Rain = 0
KLO1 151823Z 20003KT 34/13 A2995 RMK A01 T03400129  RH  028%=      5-min Rain = 0
KLO1 151824Z 21002KT 34/13 A2995 RMK A01 T03420128  RH  027%=      5-min Rain = 0
KLO1 151825Z 20001KT 34/13 A2995 RMK A01 T03430126  RH  027%=      5-min Rain = 0
KLO1 151826Z 15003KT 34/13 A2995 RMK A01 T03430127  RH  027%=      5-min Rain = 0
KLO1 151827Z 13003KT 34/12 A2995 RMK A01 T03440124  RH  027%=      5-min Rain = 0
KLO1 151828Z 15002KT 34/13 A2995 RMK A01 T03440125  RH  027%=      5-min Rain = 0
KLO1 151829Z 20005KT 35/11 A2995 RMK A01 T03450114  RH  025%=      5-min Rain = 0
KLO1 151830Z 22006KT 35/10 A2995 RMK A01 T03450102  RH  023%=      5-min Rain = 0
KLO1 151831Z 25006KT 35/10 A2995 RMK A01 T03460098  RH  022%=      5-min Rain = 0
KLO1 151832Z 25006KT 35/10 A2994 RMK A01 T03470104  RH  023%=      5-min Rain = 0
KLO1 151833Z 25007KT 35/11 A2994 RMK A01 T03490108  RH  023%=      5-min Rain = 0
KLO1 151834Z 25005KT 35/11 A2994 RMK A01 T03500110  RH  023%=      5-min Rain = 0
KLO1 151835Z 23004KT 35/11 A2994 RMK A01 T03500109  RH  023%=      5-min Rain = 0
KLO1 151836Z 19003KT 35/11 A2994 RMK A01 T03510105  RH  022%=      5-min Rain = 0
KLO1 151837Z 17005KT 35/11 A2994 RMK A01 T03500106  RH  023%=      5-min Rain = 0
KLO1 151838Z 16002KT 35/10 A2994 RMK A01 T03490102  RH  022%=      5-min Rain = 0
KLO1 151839Z 14002KT 35/10 A2994 RMK A01 T03490099  RH  022%=      5-min Rain = 0
KLO1 151840Z 11003KT 35/10 A2994 RMK A01 T03500097  RH  021%=      5-min Rain = 0
KLO1 151841Z 09002KT 35/09 A2994 RMK A01 T03510090  RH  020%=      5-min Rain = 0
KLO1 151842Z 13004KT 35/08 A2994 RMK A01 T03510082  RH  019%=      5-min Rain = 0
KLO1 151843Z 12004KT 35/08 A2994 RMK A01 T03500078  RH  019%=      5-min Rain = 0
KLO1 151844Z 12004KT 35/08 A2994 RMK A01 T03510081  RH  019%=      5-min Rain = 0
KLO1 151845Z 11004KT 36/08 A2994 RMK A01 T03550082  RH  019%=      5-min Rain = 0
KLO1 151846Z 20006KT 36/09 A2993 RMK A01 T03580085  RH  019%=      5-min Rain = 0
KLO1 151847Z 23005KT 36/09 A2994 RMK A01 T03600085  RH  019%=      5-min Rain = 0
KLO1 151848Z 21004KT 36/08 A2993 RMK A01 T03570082  RH  019%=      5-min Rain = 0
KLO1 151849Z 20003KT 36/08 A2993 RMK A01 T03550077  RH  018%=      5-min Rain = 0
KLO1 151850Z 17002KT 35/08 A2993 RMK A01 T03540075  RH  018%=      5-min Rain = 0
KLO1 151851Z 17002KT 35/08 A2993 RMK A01 T03530077  RH  018%=      5-min Rain = 0
KLO1 151852Z 18004KT 36/08 A2993 RMK A01 T03550078  RH  018%=      5-min Rain = 0
KLO1 151853Z 16004KT 36/07 A2993 RMK A01 T03550074  RH  018%=      5-min Rain = 0
KLO1 151854Z 18002KT 35/06 A2993 RMK A01 T03530064  RH  017%=      5-min Rain = 0
KLO1 151855Z 21002KT 35/06 A2993 RMK A01 T03530060  RH  016%=      5-min Rain = 0
KLO1 151856Z 20001KT 35/06 A2993 RMK A01 T03540059  RH  016%=      5-min Rain = 0
KLO1 151857Z 19000KT 36/06 A2993 RMK A01 T03550058  RH  016%=      5-min Rain = 0
KLO1 151858Z 17001KT 36/06 A2993 RMK A01 T03570057  RH  016%=      5-min Rain = 0
KLO1 151859Z 18002KT 36/06 A2993 RMK A01 T03580060  RH  016%=      5-min Rain = 0
KLO1 151900Z 16002KT 36/06 A2993 RMK A01 T03580058  RH  016%=      5-min Rain = 0
KLO1 151901Z 13002KT 36/06 A2993 RMK A01 T03570058  RH  016%=      5-min Rain = 0
KLO1 151902Z 08003KT 36/06 A2993 RMK A01 T03570060  RH  016%=      5-min Rain = 0
KLO1 151903Z 06003KT 36/06 A2993 RMK A01 T03590061  RH  016%=      5-min Rain = 0
KLO1 151904Z 06002KT 36/06 A2993 RMK A01 T03590060  RH  016%=      5-min Rain = 0
KLO1 151905Z 05003KT 36/06 A2993 RMK A01 T03590058  RH  016%=      5-min Rain = 0
KLO1 151906Z 05002KT 36/06 A2993 RMK A01 T03590058  RH  016%=      5-min Rain = 0
KLO1 151907Z 06003KT 36/06 A2993 RMK A01 T03600061  RH  016%=      5-min Rain = 0
KLO1 151908Z 07003KT 36/06 A2993 RMK A01 T03610064  RH  016%=      5-min Rain = 0
KLO1 151909Z 03002KT 36/06 A2993 RMK A01 T03610064  RH  016%=      5-min Rain = 0
KLO1 151910Z 01002KT 36/06 A2992 RMK A01 T03610063  RH  016%=      5-min Rain = 0
KLO1 151911Z 03001KT 36/06 A2992 RMK A01 T03610060  RH  016%=      5-min Rain = 0
KLO1 151912Z 05002KT 36/06 A2992 RMK A01 T03600058  RH  016%=      5-min Rain = 0
KLO1 151913Z 07002KT 36/06 A2992 RMK A01 T03600059  RH  016%=      5-min Rain = 0
KLO1 151914Z 06001KT 36/06 A2992 RMK A01 T03610057  RH  015%=      5-min Rain = 0
KLO1 151915Z 03001KT 36/06 A2992 RMK A01 T03610060  RH  016%=      5-min Rain = 0
KLO1 151916Z 07001KT 36/07 A2992 RMK A01 T03610067  RH  016%=      5-min Rain = 0
KLO1 151917Z 10004KT 36/08 A2992 RMK A01 T03640078  RH  017%=      5-min Rain = 0
KLO1 151918Z 13006KT 37/08 A2992 RMK A01 T03650083  RH  018%=      5-min Rain = 0
KLO1 151919Z 14004KT 36/08 A2992 RMK A01 T03630081  RH  018%=      5-min Rain = 0
KLO1 151920Z 19003KT 36/08 A2992 RMK A01 T03620078  RH  018%=      5-min Rain = 0
KLO1 151921Z 24003KT 36/08 A2992 RMK A01 T03600077  RH  018%=      5-min Rain = 0
KLO1 151922Z 27002KT 36/08 A2992 RMK A01 T03590078  RH  018%=      5-min Rain = 0
KLO1 151923Z 07004KT 36/08 A2992 RMK A01 T03590081  RH  018%=      5-min Rain = 0
KLO1 151924Z 09005KT 36/09 A2992 RMK A01 T03630086  RH  019%=      5-min Rain = 0
KLO1 151925Z 13005KT 37/08 A2992 RMK A01 T03660080  RH  017%=      5-min Rain = 0
KLO1 151926Z 13006KT 37/08 A2992 RMK A01 T03670079  RH  017%=      5-min Rain = 0
KLO1 151927Z 14006KT 37/08 A2992 RMK A01 T03660077  RH  017%=      5-min Rain = 0
KLO1 151928Z 15006KT 37/08 A2991 RMK A01 T03650077  RH  017%=      5-min Rain = 0
KLO1 151929Z 15006KT 36/08 A2991 RMK A01 T03640077  RH  017%=      5-min Rain = 0
KLO1 151930Z 18007KT 36/08 A2991 RMK A01 T03640076  RH  017%=      5-min Rain = 0
KLO1 151931Z 12008KT 36/07 A2991 RMK A01 T03630074  RH  017%=      5-min Rain = 0
KLO1 151932Z 11006KT 36/07 A2992 RMK A01 T03640071  RH  017%=      5-min Rain = 0
KLO1 151933Z 13003KT 36/07 A2991 RMK A01 T03600068  RH  017%=      5-min Rain = 0
KLO1 151934Z 12001KT 36/07 A2991 RMK A01 T03590072  RH  017%=      5-min Rain = 0
KLO1 151935Z 07004KT 36/07 A2991 RMK A01 T03600072  RH  017%=      5-min Rain = 0
KLO1 151936Z 06005KT 36/08 A2991 RMK A01 T03630075  RH  017%=      5-min Rain = 0
KLO1 151937Z 12007KT 37/07 A2991 RMK A01 T03680066  RH  016%=      5-min Rain = 0
KLO1 151938Z 14005KT 37/06 A2991 RMK A01 T03700062  RH  015%=      5-min Rain = 0
KLO1 151939Z 12002KT 37/06 A2991 RMK A01 T03690061  RH  015%=      5-min Rain = 0
KLO1 151940Z 11005KT 37/06 A2991 RMK A01 T03700062  RH  015%=      5-min Rain = 0
KLO1 151941Z 11006KT 37/06 A2991 RMK A01 T03690055  RH  014%=      5-min Rain = 0
KLO1 151942Z 12006KT 37/05 A2991 RMK A01 T03660052  RH  014%=      5-min Rain = 0
KLO1 151943Z 13005KT 37/05 A2991 RMK A01 T03670054  RH  015%=      5-min Rain = 0
KLO1 151944Z 06006KT 37/06 A299 RMK A01 T03690055  RH  014%=      5-min Rain = 0
KLO1 151945Z 10008KT 37/05 A2991 RMK A01 T03740054  RH  014%=      5-min Rain = 0
KLO1 151946Z 11009KT 37/05 A299 RMK A01 T03740053  RH  014%=      5-min Rain = 0
KLO1 151947Z 10007KT 37/06 A299 RMK A01 T03720057  RH  014%=      5-min Rain = 0
KLO1 151948Z 09004KT 37/06 A299 RMK A01 T03680058  RH  015%=      5-min Rain = 0
KLO1 151949Z 08004KT 37/05 A299 RMK A01 T03680054  RH  014%=      5-min Rain = 0
KLO1 151950Z 09004KT 37/05 A299 RMK A01 T03670052  RH  014%=      5-min Rain = 0
KLO1 151951Z 09007KT 37/05 A299 RMK A01 T03670047  RH  014%=      5-min Rain = 0
KLO1 151952Z 08006KT 37/05 A299 RMK A01 T03670051  RH  014%=      5-min Rain = 0
KLO1 151953Z 12004KT 36/05 A299 RMK A01 T03640052  RH  015%=      5-min Rain = 0
KLO1 151954Z 13003KT 36/05 A299 RMK A01 T03610051  RH  015%=      5-min Rain = 0
KLO1 151955Z 15004KT 36/05 A299 RMK A01 T03600051  RH  015%=      5-min Rain = 0
KLO1 151956Z 19007KT 36/06 A299 RMK A01 T03600056  RH  015%=      5-min Rain = 0
KLO1 151957Z 19004KT 36/06 A299 RMK A01 T03580057  RH  015%=      5-min Rain = 0
KLO1 151958Z 18006KT 36/06 A299 RMK A01 T03570057  RH  016%=      5-min Rain = 0
KLO1 151959Z 16004KT 36/06 A299 RMK A01 T03570057  RH  016%=      5-min Rain = 0
KLO1 152000Z 15001KT 36/06 A299 RMK A01 T03560056  RH  016%=      5-min Rain = 0
KLO1 152001Z 17004KT 36/06 A299 RMK A01 T03570058  RH  016%=      5-min Rain = 0
KLO1 152002Z 17005KT 36/05 A299 RMK A01 T03590054  RH  015%=      5-min Rain = 0
KLO1 152003Z 14006KT 36/05 A299 RMK A01 T03580052  RH  015%=      5-min Rain = 0
KLO1 152004Z 15009KT 36/05 A299 RMK A01 T03580050  RH  015%=      5-min Rain = 0
KLO1 152005Z 17014KT 36/05 A2989 RMK A01 T03600051  RH  015%=      5-min Rain = 0
KLO1 152006Z 23013KT 36/05 A2989 RMK A01 T03640054  RH  015%=      5-min Rain = 0
KLO1 152007Z 25008KT 37/06 A299 RMK A01 T03670055  RH  015%=      5-min Rain = 0
KLO1 152008Z 25010KT 37/05 A299 RMK A01 T03690051  RH  014%=      5-min Rain = 0
KLO1 152009Z 24009KT 37/05 A299 RMK A01 T03650047  RH  014%=      5-min Rain = 0
KLO1 152010Z 27008KT 36/05 A299 RMK A01 T03620048  RH  014%=      5-min Rain = 0
KLO1 152011Z 25007KT 36/05 A299 RMK A01 T03620048  RH  014%=      5-min Rain = 0
KLO1 152012Z 25006KT 36/05 A299 RMK A01 T03630048  RH  014%=      5-min Rain = 0
KLO1 152013Z 29004KT 37/05 A299 RMK A01 T03660054  RH  015%=      5-min Rain = 0
KLO1 152014Z 28008KT 37/05 A299 RMK A01 T03720054  RH  014%=      5-min Rain = 0
KLO1 152015Z 29011KT 37/05 A299 RMK A01 T03740052  RH  014%=      5-min Rain = 0
KLO1 152016Z 28007KT 37/05 A299 RMK A01 T03700050  RH  014%=      5-min Rain = 0
KLO1 152017Z 26005KT 37/05 A299 RMK A01 T03680047  RH  014%=      5-min Rain = 0
KLO1 152018Z 27003KT 37/05 A299 RMK A01 T03650047  RH  014%=      5-min Rain = 0
KLO1 152019Z 29004KT 37/05 A2989 RMK A01 T03660048  RH  014%=      5-min Rain = 0
KLO1 152020Z 32002KT 37/05 A2989 RMK A01 T03680049  RH  014%=      5-min Rain = 0
KLO1 152021Z 29003KT 37/05 A2989 RMK A01 T03700050  RH  014%=      5-min Rain = 0
KLO1 152022Z 28004KT 37/05 A2989 RMK A01 T03720049  RH  014%=      5-min Rain = 0
KLO1 152023Z 25003KT 37/05 A2989 RMK A01 T03700048  RH  014%=      5-min Rain = 0
KLO1 152024Z 23003KT 37/05 A2989 RMK A01 T03700049  RH  014%=      5-min Rain = 0
KLO1 152025Z 24001KT 37/05 A2989 RMK A01 T03700048  RH  014%=      5-min Rain = 0
KLO1 152026Z 22003KT 37/05 A2989 RMK A01 T03710049  RH  014%=      5-min Rain = 0
KLO1 152027Z 23001KT 37/05 A2989 RMK A01 T03710049  RH  014%=      5-min Rain = 0
KLO1 152028Z 20002KT 37/05 A2989 RMK A01 T03700049  RH  014%=      5-min Rain = 0
KLO1 152029Z 23001KT 37/05 A2989 RMK A01 T03700050  RH  014%=      5-min Rain = 0
KLO1 152030Z 32000KT 37/05 A2989 RMK A01 T03710049  RH  014%=      5-min Rain = 0
KLO1 152031Z 25003KT 37/05 A2989 RMK A01 T03740051  RH  014%=      5-min Rain = 0
KLO1 152032Z 30004KT 37/05 A2989 RMK A01 T03710048  RH  014%=      5-min Rain = 0
KLO1 152033Z 27003KT 37/05 A2989 RMK A01 T03660048  RH  014%=      5-min Rain = 0
KLO1 152034Z 25003KT 36/05 A2989 RMK A01 T03640048  RH  014%=      5-min Rain = 0
KLO1 152035Z 28004KT 36/05 A2989 RMK A01 T03630048  RH  014%=      5-min Rain = 0
KLO1 152036Z 30001KT 36/05 A2988 RMK A01 T03610047  RH  014%=      5-min Rain = 0
KLO1 152037Z 31002KT 36/05 A2988 RMK A01 T03590047  RH  014%=      5-min Rain = 0
KLO1 152038Z 33003KT 36/05 A2988 RMK A01 T03590047  RH  014%=      5-min Rain = 0
KLO1 152039Z 33004KT 36/05 A2988 RMK A01 T03580047  RH  015%=      5-min Rain = 0
KLO1 152040Z 33005KT 36/05 A2988 RMK A01 T03590049  RH  015%=      5-min Rain = 0
KLO1 152041Z 32007KT 36/05 A2988 RMK A01 T03590049  RH  015%=      5-min Rain = 0
KLO1 152042Z 33006KT 36/05 A2988 RMK A01 T03600048  RH  014%=      5-min Rain = 0
KLO1 152043Z 32006KT 36/05 A2988 RMK A01 T03600048  RH  014%=      5-min Rain = 0
KLO1 152044Z 31006KT 36/05 A2988 RMK A01 T03600048  RH  015%=      5-min Rain = 0
KLO1 152045Z 33005KT 36/05 A2988 RMK A01 T03600048  RH  014%=      5-min Rain = 0
KLO1 152046Z 29005KT 36/05 A2988 RMK A01 T03590048  RH  015%=      5-min Rain = 0
KLO1 152047Z 25003KT 36/05 A2988 RMK A01 T03590048  RH  015%=      5-min Rain = 0
KLO1 152048Z 22001KT 36/05 A2988 RMK A01 T03590048  RH  014%=      5-min Rain = 0
KLO1 152049Z 14001KT 36/05 A2988 RMK A01 T03590047  RH  014%=      5-min Rain = 0
KLO1 152050Z 13002KT 36/05 A2988 RMK A01 T03600047  RH  014%=      5-min Rain = 0
KLO1 152051Z 15002KT 36/05 A2988 RMK A01 T03600047  RH  014%=      5-min Rain = 0
KLO1 152052Z 19004KT 36/05 A2988 RMK A01 T03600045  RH  014%=      5-min Rain = 0
KLO1 152053Z 20004KT 36/04 A2988 RMK A01 T03600041  RH  014%=      5-min Rain = 0
KLO1 152054Z 19006KT 36/04 A2988 RMK A01 T03610041  RH  014%=      5-min Rain = 0
KLO1 152055Z 19005KT 36/04 A2988 RMK A01 T03620038  RH  013%=      5-min Rain = 0
KLO1 152056Z 20004KT 36/04 A2988 RMK A01 T03610037  RH  013%=      5-min Rain = 0
KLO1 152057Z 32003KT 36/04 A2988 RMK A01 T03600038  RH  013%=      5-min Rain = 0
KLO1 152058Z 00003KT 36/04 A2988 RMK A01 T03610037  RH  013%=      5-min Rain = 0
KLO1 152059Z 35003KT 36/04 A2988 RMK A01 T03620037  RH  013%=      5-min Rain = 0
KLO1 152100Z 33004KT 36/04 A2988 RMK A01 T03630037  RH  013%=      5-min Rain = 0
KLO1 152101Z 01004KT 36/04 A2988 RMK A01 T03630036  RH  013%=      5-min Rain = 0
KLO1 152102Z 29002KT 36/04 A2987 RMK A01 T03640038  RH  013%=      5-min Rain = 0
KLO1 152103Z 21003KT 36/04 A2987 RMK A01 T03640038  RH  013%=      5-min Rain = 0
KLO1 152104Z 22004KT 37/04 A2988 RMK A01 T03650037  RH  013%=      5-min Rain = 0
KLO1 152105Z 26004KT 36/04 A2988 RMK A01 T03640038  RH  013%=      5-min Rain = 0
KLO1 152106Z 07003KT 36/04 A2988 RMK A01 T03640036  RH  013%=      5-min Rain = 0
KLO1 152107Z 07011KT 36/04 A2989 RMK A01 T03640044  RH  014%=      5-min Rain = 0
KLO1 152108Z 05013G18KT 36/07 A2989 RMK A01 T03580074  RH  018%=      5-min Rain = 0
KLO1 152109Z 05016KT 35/09 A2989 RMK A01 T03450085  RH  020%=      5-min Rain = 0
KLO1 152110Z 05017KT 34/08 A2989 RMK A01 T03380084  RH  021%=      5-min Rain = 0
KLO1 152111Z 05018KT 34/08 A2989 RMK A01 T03360081  RH  021%=      5-min Rain = 0
KLO1 152112Z 05020KT 33/08 A2989 RMK A01 T03320080  RH  021%=      5-min Rain = 0
KLO1 152113Z 05018KT 33/08 A2989 RMK A01 T03300080  RH  021%=      5-min Rain = 0
KLO1 152114Z 06017G23KT 33/08 A2989 RMK A01 T03310075  RH  020%=      5-min Rain = 0
KLO1 152115Z 07018G23KT 33/07 A2989 RMK A01 T03320065  RH  019%=      5-min Rain = 0
KLO1 152116Z 07015KT 33/07 A2988 RMK A01 T03320066  RH  019%=      5-min Rain = 0
KLO1 152117Z 07016KT 33/07 A2989 RMK A01 T03330066  RH  019%=      5-min Rain = 0
KLO1 152118Z 07018G23KT 33/06 A2989 RMK A01 T03330063  RH  019%=      5-min Rain = 0
KLO1 152119Z 08018KT 33/06 A2989 RMK A01 T03300060  RH  019%=      5-min Rain = 0
KLO1 152120Z 07017KT 33/06 A2989 RMK A01 T03290063  RH  019%=      5-min Rain = 0
KLO1 152121Z 08018KT 33/07 A2989 RMK A01 T03280072  RH  020%=      5-min Rain = 0
KLO1 152122Z 07021G30KT 33/10 A2989 RMK A01 T03250096  RH  024%=      5-min Rain = 0
KLO1 152123Z 06023G30KT 32/10 A2989 RMK A01 T03210103  RH  026%=      5-min Rain = 0
KLO1 152124Z 07021G26KT 32/11 A2989 RMK A01 T03150107  RH  028%=      5-min Rain = 0
KLO1 152125Z 07021G28KT 31/11 A2989 RMK A01 T03120107  RH  028%=      5-min Rain = 0
KLO1 152126Z 07021KT 31/11 A2989 RMK A01 T03100110  RH  029%=      5-min Rain = 0
KLO1 152127Z 06020KT 31/11 A2989 RMK A01 T03090112  RH  030%=      5-min Rain = 0
KLO1 152128Z 06022KT 31/11 A2989 RMK A01 T03080113  RH  030%=      5-min Rain = 0
KLO1 152129Z 06016KT 31/11 A2989 RMK A01 T03090113  RH  030%=      5-min Rain = 0
KLO1 152130Z 06015KT 31/11 A2989 RMK A01 T03140111  RH  029%=      5-min Rain = 0
KLO1 152131Z 07016KT 32/11 A2989 RMK A01 T03170108  RH  028%=      5-min Rain = 0
KLO1 152132Z 08017KT 32/10 A2988 RMK A01 T03190100  RH  026%=      5-min Rain = 0
KLO1 152133Z 08017KT 32/10 A2988 RMK A01 T03220102  RH  026%=      5-min Rain = 0
KLO1 152134Z 06015KT 32/09 A2988 RMK A01 T03220093  RH  024%=      5-min Rain = 0
KLO1 152135Z 07013KT 32/09 A2988 RMK A01 T03230090  RH  024%=      5-min Rain = 0
KLO1 152136Z 08014G19KT 33/09 A2988 RMK A01 T03270087  RH  023%=      5-min Rain = 0
KLO1 152137Z 07017KT 33/08 A2988 RMK A01 T03290078  RH  021%=      5-min Rain = 0
KLO1 152138Z 07016G22KT 33/08 A2988 RMK A01 T03280077  RH  021%=      5-min Rain = 0
KLO1 152139Z 07017KT 33/08 A2988 RMK A01 T03280077  RH  021%=      5-min Rain = 0
KLO1 152140Z 08020KT 33/07 A2988 RMK A01 T03290070  RH  020%=      5-min Rain = 0
KLO1 152141Z 08018KT 33/07 A2988 RMK A01 T03290070  RH  020%=      5-min Rain = 0
KLO1 152142Z 08020KT 33/07 A2988 RMK A01 T03290071  RH  020%=      5-min Rain = 0
KLO1 152143Z 07016KT 33/08 A2988 RMK A01 T03290077  RH  021%=      5-min Rain = 0
KLO1 152144Z 08018KT 33/08 A2988 RMK A01 T03300079  RH  021%=      5-min Rain = 0
KLO1 152145Z 08018KT 33/08 A2988 RMK A01 T03280082  RH  022%=      5-min Rain = 0
KLO1 152146Z 07016KT 33/08 A2988 RMK A01 T03270082  RH  022%=      5-min Rain = 0
KLO1 152147Z 08018KT 33/08 A2988 RMK A01 T03270084  RH  022%=      5-min Rain = 0
KLO1 152148Z 08018KT 33/09 A2988 RMK A01 T03250086  RH  023%=      5-min Rain = 0
KLO1 152149Z 07018KT 33/09 A2988 RMK A01 T03250086  RH  023%=      5-min Rain = 0
KLO1 152150Z 07017G22KT 33/08 A2988 RMK A01 T03250084  RH  022%=      5-min Rain = 0
KLO1 152151Z 08016G23KT 33/09 A2988 RMK A01 T03260088  RH  023%=      5-min Rain = 0
KLO1 152152Z 08021KT 33/09 A2988 RMK A01 T03270088  RH  023%=      5-min Rain = 0
KLO1 152153Z 09019G24KT 33/09 A2988 RMK A01 T03290090  RH  023%=      5-min Rain = 0
KLO1 152154Z 10020G27KT 33/10 A2989 RMK A01 T03290098  RH  024%=      5-min Rain = 0
KLO1 152155Z 10025KT 32/10 A2989 RMK A01 T03240097  RH  025%=      5-min Rain = 0
KLO1 152156Z 10026KT 32/09 A2989 RMK A01 T03180087  RH  024%=      5-min Rain = 0
KLO1 152157Z 09024G30KT 31/09 A2989 RMK A01 T03140090  RH  025%=      5-min Rain = 0
KLO1 152158Z 09021KT 31/10 A2989 RMK A01 T03120097  RH  026%=      5-min Rain = 0
KLO1 152159Z 09018KT 31/10 A2989 RMK A01 T03120099  RH  027%=      5-min Rain = 0
KLO1 152200Z 09019KT 31/10 A2989 RMK A01 T03140102  RH  027%=      5-min Rain = 0
KLO1 152201Z 10028G42KT 32/11 A2989 RMK A01 T03160112  RH  029%=      5-min Rain = 0
KLO1 152202Z 10031G39KT 30/13 A299 RMK A01 T03040126  RH  034%=      5-min Rain = 0
KLO1 152203Z 10029G35KT 29/13 A2989 RMK A01 T02900131  RH  038%=      5-min Rain = 0
KLO1 152204Z 10029KT 28/14 A2989 RMK A01 T02840135  RH  040%=      5-min Rain = 0
KLO1 152205Z 10027G33KT 28/14 A299 RMK A01 T02820138  RH  041%=      5-min Rain = 0
KLO1 152206Z 10025G31KT 28/14 A299 RMK A01 T02810139  RH  042%=      5-min Rain = 0
KLO1 152207Z 09028KT 28/14 A299 RMK A01 T02800141  RH  042%=      5-min Rain = 0
KLO1 152208Z 09028G33KT 28/14 A299 RMK A01 T02790141  RH  043%=      5-min Rain = 0
KLO1 152209Z 09028KT 28/14 A299 RMK A01 T02770141  RH  043%=      5-min Rain = 0
KLO1 152210Z 09025KT 28/14 A299 RMK A01 T02760141  RH  043%=      5-min Rain = 0
KLO1 152211Z 09020KT 28/14 A299 RMK A01 T02770141  RH  043%=      5-min Rain = 0
KLO1 152212Z 10024KT 28/14 A299 RMK A01 T02820137  RH  041%=      5-min Rain = 0
KLO1 152213Z 09023KT 28/13 A299 RMK A01 T02830134  RH  040%=      5-min Rain = 0
KLO1 152214Z 09022G28KT 28/13 A2989 RMK A01 T02840132  RH  039%=      5-min Rain = 0
KLO1 152215Z 10023KT 28/13 A299 RMK A01 T02840133  RH  039%=      5-min Rain = 0
KLO1 152216Z 10022KT 28/13 A2989 RMK A01 T02820132  RH  040%=      5-min Rain = 0
KLO1 152217Z 10023KT 28/13 A2989 RMK A01 T02810132  RH  040%=      5-min Rain = 0
KLO1 152218Z 10025KT 28/13 A2989 RMK A01 T02810129  RH  039%=      5-min Rain = 0
KLO1 152219Z 10024KT 28/12 A2989 RMK A01 T02790124  RH  038%=      5-min Rain = 0
KLO1 152220Z 10021KT 28/12 A2989 RMK A01 T02780122  RH  038%=      5-min Rain = 0
KLO1 152221Z 10024G29KT 28/12 A2989 RMK A01 T02820121  RH  037%=      5-min Rain = 0
KLO1 152222Z 10023KT 28/12 A2989 RMK A01 T02810119  RH  037%=      5-min Rain = 0
KLO1 152223Z 10020KT 28/12 A2989 RMK A01 T02820120  RH  037%=      5-min Rain = 0
KLO1 152224Z 10019KT 29/12 A2989 RMK A01 T02860121  RH  036%=      5-min Rain = 0
KLO1 152225Z 10022G27KT 29/12 A2989 RMK A01 T02900120  RH  035%=      5-min Rain = 0
KLO1 152226Z 10021KT 29/12 A2989 RMK A01 T02920119  RH  034%=      5-min Rain = 0
KLO1 152227Z 10024KT 29/12 A2989 RMK A01 T02920118  RH  034%=      5-min Rain = 0
KLO1 152228Z 10021KT 29/12 A2989 RMK A01 T02930117  RH  034%=      5-min Rain = 0
KLO1 152229Z 10021G27KT 29/12 A2989 RMK A01 T02930119  RH  034%=      5-min Rain = 0
KLO1 152230Z 10024KT 30/12 A2989 RMK A01 T02950119  RH  034%=      5-min Rain = 0
KLO1 152231Z 10020G27KT 30/12 A2989 RMK A01 T02950117  RH  033%=      5-min Rain = 0
KLO1 152232Z 11020KT 30/12 A2989 RMK A01 T02970117  RH  033%=      5-min Rain = 0
KLO1 152233Z 11020KT 30/12 A2989 RMK A01 T02990116  RH  032%=      5-min Rain = 0
KLO1 152234Z 11021G26KT 30/12 A2989 RMK A01 T03030117  RH  032%=      5-min Rain = 0
KLO1 152235Z 10021KT 30/12 A2989 RMK A01 T03040116  RH  032%=      5-min Rain = 0
KLO1 152236Z 11023KT 30/12 A2989 RMK A01 T03030120  RH  032%=      5-min Rain = 0
KLO1 152237Z 11021G28KT 30/12 A2988 RMK A01 T03000121  RH  033%=      5-min Rain = 0
KLO1 152238Z 11020KT 30/12 A2988 RMK A01 T03020119  RH  032%=      5-min Rain = 0
KLO1 152239Z 11021KT 31/12 A2989 RMK A01 T03050116  RH  031%=      5-min Rain = 0
KLO1 152240Z 11024KT 31/11 A2988 RMK A01 T03050112  RH  031%=      5-min Rain = 0
KLO1 152241Z 11026KT 30/11 A2989 RMK A01 T03040112  RH  031%=      5-min Rain = 0
KLO1 152242Z 11024G29KT 30/11 A2989 RMK A01 T03030112  RH  031%=      5-min Rain = 0
KLO1 152243Z 11023KT 30/11 A2989 RMK A01 T03040112  RH  031%=      5-min Rain = 0
KLO1 152244Z 10020G25KT 30/11 A2988 RMK A01 T03040113  RH  031%=      5-min Rain = 0
KLO1 152245Z 10022KT 31/11 A2988 RMK A01 T03070114  RH  031%=      5-min Rain = 0
KLO1 152246Z 10025G30KT 31/11 A2988 RMK A01 T03080114  RH  030%=      5-min Rain = 0
KLO1 152247Z 10024KT 31/11 A2988 RMK A01 T03070114  RH  030%=      5-min Rain = 0
KLO1 152248Z 11023G28KT 31/11 A2988 RMK A01 T03060114  RH  031%=      5-min Rain = 0
KLO1 152249Z 11025KT 31/12 A2988 RMK A01 T03080116  RH  031%=      5-min Rain = 0
KLO1 152250Z 10024KT 31/12 A2988 RMK A01 T03090116  RH  031%=      5-min Rain = 0
KLO1 152251Z 10025KT 31/12 A2988 RMK A01 T03090116  RH  031%=      5-min Rain = 0
KLO1 152252Z 11025KT 31/12 A2988 RMK A01 T03090115  RH  030%=      5-min Rain = 0
KLO1 152253Z 10024KT 31/11 A2987 RMK A01 T03100113  RH  030%=      5-min Rain = 0
KLO1 152254Z 10024KT 31/11 A2987 RMK A01 T03110110  RH  029%=      5-min Rain = 0
KLO1 152255Z 10021KT 31/11 A2987 RMK A01 T03120110  RH  029%=      5-min Rain = 0
KLO1 152256Z 10020G25KT 31/11 A2987 RMK A01 T03130110  RH  029%=      5-min Rain = 0
KLO1 152257Z 11020KT 32/11 A2987 RMK A01 T03150106  RH  028%=      5-min Rain = 0
KLO1 152258Z 11021KT 32/10 A2987 RMK A01 T03150103  RH  027%=      5-min Rain = 0
KLO1 152259Z 11015KT 32/10 A2987 RMK A01 T03170103  RH  027%=      5-min Rain = 0
KLO1 152300Z 11018KT 32/10 A2987 RMK A01 T03220101  RH  026%=      5-min Rain = 0
KLO1 152301Z 11018G24KT 32/10 A2987 RMK A01 T03210100  RH  026%=      5-min Rain = 0
KLO1 152302Z 11022KT 32/10 A2987 RMK A01 T03210100  RH  026%=      5-min Rain = 0
KLO1 152303Z 12021KT 32/10 A2987 RMK A01 T03210102  RH  026%=      5-min Rain = 0
KLO1 152304Z 12020KT 32/10 A2986 RMK A01 T03200102  RH  026%=      5-min Rain = 0
KLO1 152305Z 11020KT 32/10 A2986 RMK A01 T03190102  RH  026%=      5-min Rain = 0
KLO1 152306Z 10022KT 32/10 A2987 RMK A01 T03190103  RH  026%=      5-min Rain = 0
KLO1 152307Z 10020KT 32/10 A2986 RMK A01 T03180102  RH  026%=      5-min Rain = 0
KLO1 152308Z 11019KT 32/10 A2986 RMK A01 T03190101  RH  026%=      5-min Rain = 0
KLO1 152309Z 11020KT 32/10 A2986 RMK A01 T03200100  RH  026%=      5-min Rain = 0
KLO1 152310Z 11020KT 32/10 A2986 RMK A01 T03200099  RH  026%=      5-min Rain = 0
KLO1 152311Z 12020KT 32/10 A2986 RMK A01 T03200099  RH  026%=      5-min Rain = 0
KLO1 152312Z 11016KT 32/10 A2986 RMK A01 T03200099  RH  026%=      5-min Rain = 0
KLO1 152313Z 11017KT 32/10 A2986 RMK A01 T03210099  RH  025%=      5-min Rain = 0
KLO1 152314Z 12016KT 32/10 A2986 RMK A01 T03220099  RH  025%=      5-min Rain = 0
KLO1 152315Z 11017G22KT 32/10 A2985 RMK A01 T03220100  RH  026%=      5-min Rain = 0
KLO1 152316Z 10019KT 32/10 A2986 RMK A01 T03220099  RH  025%=      5-min Rain = 0
KLO1 152317Z 11016KT 32/10 A2985 RMK A01 T03200100  RH  026%=      5-min Rain = 0
KLO1 152318Z 11017KT 32/10 A2985 RMK A01 T03200101  RH  026%=      5-min Rain = 0
KLO1 152319Z 10018KT 32/10 A2985 RMK A01 T03210101  RH  026%=      5-min Rain = 0
KLO1 152320Z 11017KT 32/10 A2985 RMK A01 T03210100  RH  026%=      5-min Rain = 0
KLO1 152321Z 12016G21KT 32/10 A2985 RMK A01 T03210100  RH  026%=      5-min Rain = 0
KLO1 152322Z 12015KT 32/10 A2985 RMK A01 T03230099  RH  025%=      5-min Rain = 0
KLO1 152323Z 12018KT 33/10 A2985 RMK A01 T03250096  RH  024%=      5-min Rain = 0
KLO1 152324Z 12017KT 33/10 A2985 RMK A01 T03250095  RH  024%=      5-min Rain = 0
KLO1 152325Z 12017KT 32/10 A2985 RMK A01 T03240095  RH  024%=      5-min Rain = 0
KLO1 152326Z 11016KT 32/10 A2985 RMK A01 T03240095  RH  024%=      5-min Rain = 0
KLO1 152327Z 11013KT 32/10 A2985 RMK A01 T03240095  RH  024%=      5-min Rain = 0
KLO1 152328Z 10013KT 33/10 A2986 RMK A01 T03250095  RH  024%=      5-min Rain = 0
KLO1 152329Z 12012KT 33/10 A2985 RMK A01 T03270095  RH  024%=      5-min Rain = 0
KLO1 152330Z 12016KT 33/09 A2985 RMK A01 T03290094  RH  024%=      5-min Rain = 0
KLO1 152331Z 12015KT 33/09 A2985 RMK A01 T03290093  RH  023%=      5-min Rain = 0
KLO1 152332Z 12014KT 33/09 A2985 RMK A01 T03280092  RH  023%=      5-min Rain = 0
KLO1 152333Z 12013KT 33/09 A2985 RMK A01 T03270094  RH  024%=      5-min Rain = 0
KLO1 152334Z 11013G18KT 33/09 A2986 RMK A01 T03280092  RH  023%=      5-min Rain = 0
KLO1 152335Z 11016KT 33/09 A2986 RMK A01 T03290090  RH  023%=      5-min Rain = 0
KLO1 152336Z 11015KT 33/09 A2986 RMK A01 T03280091  RH  023%=      5-min Rain = 0
KLO1 152337Z 11013KT 33/09 A2986 RMK A01 T03280091  RH  023%=      5-min Rain = 0
KLO1 152338Z 11014KT 33/09 A2986 RMK A01 T03280092  RH  023%=      5-min Rain = 0
KLO1 152339Z 12016KT 33/09 A2986 RMK A01 T03280093  RH  024%=      5-min Rain = 0
KLO1 152340Z 12014KT 33/09 A2986 RMK A01 T03270092  RH  023%=      5-min Rain = 0
KLO1 152341Z 12014KT 33/09 A2986 RMK A01 T03280093  RH  024%=      5-min Rain = 0
KLO1 152342Z 12014KT 33/09 A2986 RMK A01 T03280094  RH  024%=      5-min Rain = 0
KLO1 152343Z 11015KT 33/09 A2986 RMK A01 T03280094  RH  024%=      5-min Rain = 0
KLO1 152344Z 12012KT 33/09 A2986 RMK A01 T03280094  RH  024%=      5-min Rain = 0
KLO1 152345Z 12013KT 33/10 A2986 RMK A01 T03300095  RH  024%=      5-min Rain = 0
KLO1 152346Z 12013KT 33/09 A2986 RMK A01 T03310094  RH  023%=      5-min Rain = 0
KLO1 152347Z 12018KT 33/09 A2986 RMK A01 T03300091  RH  023%=      5-min Rain = 0
KLO1 152348Z 13017KT 33/09 A2987 RMK A01 T03290090  RH  023%=      5-min Rain = 0
KLO1 152349Z 13015KT 33/09 A2987 RMK A01 T03280090  RH  023%=      5-min Rain = 0
KLO1 152350Z 13015KT 33/09 A2987 RMK A01 T03280090  RH  023%=      5-min Rain = 0
KLO1 152351Z 11015KT 33/09 A2987 RMK A01 T03290090  RH  023%=      5-min Rain = 0
KLO1 152352Z 11013KT 33/09 A2987 RMK A01 T03280089  RH  023%=      5-min Rain = 0
KLO1 152353Z 12016KT 33/09 A2987 RMK A01 T03280090  RH  023%=      5-min Rain = 0
KLO1 152354Z 12016KT 33/09 A2987 RMK A01 T03290090  RH  023%=      5-min Rain = 0
KLO1 152355Z 12016KT 33/09 A2987 RMK A01 T03290089  RH  023%=      5-min Rain = 0
KLO1 152356Z 12016KT 33/09 A2987 RMK A01 T03290090  RH  023%=      5-min Rain = 0
KLO1 152357Z 12016KT 33/09 A2987 RMK A01 T03290089  RH  023%=      5-min Rain = 0
KLO1 152358Z 12018KT 33/09 A2988 RMK A01 T03290089  RH  023%=      5-min Rain = 0
KLO1 152359Z 12019KT 33/09 A2988 RMK A01 T03280089  RH  023%=      5-min Rain = 0
KLO1 160000Z 12015KT 33/09 A2988 RMK A01 T03270088  RH  023%=      5-min Rain = 0
KLO1 160001Z 12015G21KT 33/09 A2988 RMK A01 T03270088  RH  023%=      5-min Rain = 0
KLO1 160002Z 12017KT 33/09 A2988 RMK A01 T03280088  RH  023%=      5-min Rain = 0
KLO1 160003Z 12019KT 33/09 A2988 RMK A01 T03290087  RH  022%=      5-min Rain = 0
KLO1 160004Z 12016KT 33/09 A2988 RMK A01 T03280087  RH  022%=      5-min Rain = 0
KLO1 160005Z 13015KT 33/09 A2988 RMK A01 T03280088  RH  023%=      5-min Rain = 0
KLO1 160006Z 13013KT 33/09 A2988 RMK A01 T03290089  RH  023%=      5-min Rain = 0
KLO1 160007Z 13015KT 33/09 A2988 RMK A01 T03300085  RH  022%=      5-min Rain = 0
KLO1 160008Z 13013KT 33/09 A2988 RMK A01 T03310086  RH  022%=      5-min Rain = 0
KLO1 160009Z 14021G26KT 33/09 A2988 RMK A01 T03320094  RH  023%=      5-min Rain = 0
KLO1 160010Z 14022G29KT 33/11 A2988 RMK A01 T03280111  RH  027%=      5-min Rain = 0
KLO1 160011Z 14023G29KT 32/11 A2988 RMK A01 T03210113  RH  028%=      5-min Rain = 0
KLO1 160012Z 14022KT 32/11 A2989 RMK A01 T03150114  RH  029%=      5-min Rain = 0
KLO1 160013Z 14027KT 31/12 A2989 RMK A01 T03100117  RH  031%=      5-min Rain = 0
KLO1 160014Z 15024KT 31/12 A2989 RMK A01 T03050120  RH  032%=      5-min Rain = 0
KLO1 160015Z 14019G24KT 30/12 A2989 RMK A01 T03010123  RH  033%=      5-min Rain = 0
KLO1 160016Z 15022G27KT 30/13 A2989 RMK A01 T03010125  RH  034%=      5-min Rain = 0
KLO1 160017Z 15023G29KT 30/13 A2989 RMK A01 T02980129  RH  035%=      5-min Rain = 0
KLO1 160018Z 15024G30KT 29/13 A2989 RMK A01 T02920132  RH  037%=      5-min Rain = 0
KLO1 160019Z 14022KT 29/13 A2989 RMK A01 T02870133  RH  039%=      5-min Rain = 0
KLO1 160020Z 14022G27KT 29/13 A2989 RMK A01 T02850134  RH  040%=      5-min Rain = 0
KLO1 160021Z 14023KT 28/14 A2989 RMK A01 T02840136  RH  040%=      5-min Rain = 0
KLO1 160022Z 15021G26KT 28/14 A2989 RMK A01 T02810137  RH  041%=      5-min Rain = 0
KLO1 160023Z 14019KT 28/14 A2989 RMK A01 T02800137  RH  042%=      5-min Rain = 0
KLO1 160024Z 14021G26KT 28/14 A2989 RMK A01 T02800137  RH  042%=      5-min Rain = 0
KLO1 160025Z 14023G29KT 28/14 A2989 RMK A01 T02790135  RH  041%=      5-min Rain = 0
KLO1 160026Z 15021KT 28/14 A2989 RMK A01 T02780135  RH  041%=      5-min Rain = 0
KLO1 160027Z 15021KT 28/13 A2989 RMK A01 T02780134  RH  041%=      5-min Rain = 0
KLO1 160028Z 15022KT 28/13 A2989 RMK A01 T02780134  RH  041%=      5-min Rain = 0
KLO1 160029Z 14021KT 28/13 A2989 RMK A01 T02770132  RH  041%=      5-min Rain = 0
KLO1 160030Z 14021KT 28/13 A2989 RMK A01 T02770132  RH  041%=      5-min Rain = 0
KLO1 160031Z 14020G26KT 28/13 A2989 RMK A01 T02780131  RH  040%=      5-min Rain = 0
KLO1 160032Z 14020KT 28/13 A2989 RMK A01 T02790131  RH  040%=      5-min Rain = 0
KLO1 160033Z 14020KT 28/13 A2989 RMK A01 T02790130  RH  040%=      5-min Rain = 0
KLO1 160034Z 14021KT 28/13 A2989 RMK A01 T02790130  RH  040%=      5-min Rain = 0
KLO1 160035Z 14020KT 28/13 A2989 RMK A01 T02800130  RH  040%=      5-min Rain = 0
KLO1 160036Z 14019KT 28/13 A2989 RMK A01 T02790130  RH  040%=      5-min Rain = 0
KLO1 160037Z 14017KT 28/13 A2989 RMK A01 T02800131  RH  040%=      5-min Rain = 0
KLO1 160038Z 14019G24KT 28/13 A2989 RMK A01 T02800131  RH  040%=      5-min Rain = 0
KLO1 160039Z 14018KT 28/13 A2989 RMK A01 T02800132  RH  040%=      5-min Rain = 0
KLO1 160040Z 14019KT 28/13 A2989 RMK A01 T02810132  RH  040%=      5-min Rain = 0
KLO1 160041Z 14015KT 28/13 A2989 RMK A01 T02810132  RH  040%=      5-min Rain = 0
KLO1 160042Z 13016KT 28/13 A2989 RMK A01 T02810133  RH  040%=      5-min Rain = 0
KLO1 160043Z 14014KT 28/13 A2989 RMK A01 T02820133  RH  040%=      5-min Rain = 0
KLO1 160044Z 13018KT 28/13 A2989 RMK A01 T02830133  RH  040%=      5-min Rain = 0
KLO1 160045Z 13016KT 28/13 A2989 RMK A01 T02830132  RH  039%=      5-min Rain = 0
KLO1 160046Z 13014KT 28/13 A2989 RMK A01 T02830132  RH  039%=      5-min Rain = 0
KLO1 160047Z 13015KT 28/13 A2989 RMK A01 T02840133  RH  039%=      5-min Rain = 0
KLO1 160048Z 14015KT 28/13 A2989 RMK A01 T02840133  RH  039%=      5-min Rain = 0
KLO1 160049Z 14013KT 28/13 A2989 RMK A01 T02840133  RH  039%=      5-min Rain = 0
KLO1 160050Z 14013KT 28/13 A2989 RMK A01 T02840133  RH  039%=      5-min Rain = 0
KLO1 160051Z 14012KT 28/13 A2989 RMK A01 T02840133  RH  039%=      5-min Rain = 0
KLO1 160052Z 14010KT 28/13 A2989 RMK A01 T02840133  RH  039%=      5-min Rain = 0
KLO1 160053Z 13011KT 28/13 A2989 RMK A01 T02840131  RH  039%=      5-min Rain = 0
KLO1 160054Z 13011KT 29/13 A2989 RMK A01 T02850130  RH  039%=      5-min Rain = 0
KLO1 160055Z 13013G18KT 29/13 A2989 RMK A01 T02850129  RH  038%=      5-min Rain = 0
KLO1 160056Z 12014KT 29/13 A2989 RMK A01 T02860127  RH  038%=      5-min Rain = 0
KLO1 160057Z 13014KT 29/13 A2989 RMK A01 T02860127  RH  037%=      5-min Rain = 0
KLO1 160058Z 11012KT 29/13 A2989 RMK A01 T02860126  RH  037%=      5-min Rain = 0
KLO1 160059Z 11012KT 29/12 A299 RMK A01 T02860124  RH  037%=      5-min Rain = 0
KLO1 160100Z 10013KT 29/12 A299 RMK A01 T02860123  RH  037%=      5-min Rain = 0
KLO1 160101Z 10011KT 29/12 A299 RMK A01 T02860122  RH  036%=      5-min Rain = 0
KLO1 160102Z 08011KT 29/12 A299 RMK A01 T02860122  RH  036%=      5-min Rain = 0
KLO1 160103Z 08011KT 29/12 A299 RMK A01 T02860123  RH  036%=      5-min Rain = 0
KLO1 160104Z 08009KT 29/12 A299 RMK A01 T02850124  RH  037%=      5-min Rain = 0
KLO1 160105Z 07010KT 28/12 A299 RMK A01 T02840124  RH  037%=      5-min Rain = 0
KLO1 160106Z 06010KT 28/12 A299 RMK A01 T02840123  RH  037%=      5-min Rain = 0
KLO1 160107Z 06011KT 28/12 A299 RMK A01 T02830122  RH  037%=      5-min Rain = 0
KLO1 160108Z 07011KT 28/12 A299 RMK A01 T02830123  RH  037%=      5-min Rain = 0
KLO1 160109Z 06011KT 28/12 A299 RMK A01 T02820123  RH  037%=      5-min Rain = 0
KLO1 160110Z 06011KT 28/12 A299 RMK A01 T02820124  RH  038%=      5-min Rain = 0
KLO1 160111Z 06011KT 28/12 A299 RMK A01 T02810123  RH  038%=      5-min Rain = 0
KLO1 160112Z 07011KT 28/12 A299 RMK A01 T02810121  RH  037%=      5-min Rain = 0
KLO1 160113Z 07012KT 28/12 A299 RMK A01 T02810120  RH  037%=      5-min Rain = 0
KLO1 160114Z 08011KT 28/12 A299 RMK A01 T02810120  RH  037%=      5-min Rain = 0
KLO1 160115Z 08012KT 28/12 A299 RMK A01 T02810120  RH  037%=      5-min Rain = 0
KLO1 160116Z 08010KT 28/12 A299 RMK A01 T02800120  RH  037%=      5-min Rain = 0
KLO1 160117Z 08009KT 28/12 A299 RMK A01 T02790119  RH  037%=      5-min Rain = 0
KLO1 160118Z 08011KT 28/12 A2991 RMK A01 T02790119  RH  037%=      5-min Rain = 0
KLO1 160119Z 08010KT 28/12 A2991 RMK A01 T02780119  RH  037%=      5-min Rain = 0
KLO1 160120Z 07008KT 28/12 A2991 RMK A01 T02780119  RH  037%=      5-min Rain = 0
KLO1 160121Z 07009KT 28/12 A2991 RMK A01 T02770119  RH  037%=      5-min Rain = 0
KLO1 160122Z 07007KT 28/12 A2991 RMK A01 T02770119  RH  038%=      5-min Rain = 0
KLO1 160123Z 08008KT 28/12 A2991 RMK A01 T02760120  RH  038%=      5-min Rain = 0
KLO1 160124Z 07007KT 28/12 A299 RMK A01 T02750120  RH  038%=      5-min Rain = 0
KLO1 160125Z 07009KT 28/12 A299 RMK A01 T02750120  RH  038%=      5-min Rain = 0
KLO1 160126Z 08008KT 27/12 A299 RMK A01 T02740119  RH  038%=      5-min Rain = 0
KLO1 160127Z 07009KT 27/12 A299 RMK A01 T02740119  RH  038%=      5-min Rain = 0
KLO1 160128Z 08009KT 27/12 A299 RMK A01 T02730118  RH  038%=      5-min Rain = 0
KLO1 160129Z 08009KT 27/12 A299 RMK A01 T02730118  RH  038%=      5-min Rain = 0
KLO1 160130Z 08011KT 27/12 A299 RMK A01 T02730117  RH  038%=      5-min Rain = 0
KLO1 160131Z 08010KT 27/12 A299 RMK A01 T02730116  RH  038%=      5-min Rain = 0
KLO1 160132Z 08009KT 27/12 A299 RMK A01 T02730115  RH  037%=      5-min Rain = 0
KLO1 160133Z 08008KT 27/12 A299 RMK A01 T02730115  RH  037%=      5-min Rain = 0
KLO1 160134Z 08008KT 27/12 A299 RMK A01 T02730115  RH  037%=      5-min Rain = 0
KLO1 160135Z 08010KT 27/11 A299 RMK A01 T02720114  RH  037%=      5-min Rain = 0
KLO1 160136Z 07009KT 27/11 A299 RMK A01 T02730114  RH  037%=      5-min Rain = 0
KLO1 160137Z 07010KT 27/11 A2991 RMK A01 T02730114  RH  037%=      5-min Rain = 0
KLO1 160138Z 06009KT 27/11 A2991 RMK A01 T02730114  RH  037%=      5-min Rain = 0
KLO1 160139Z 07010KT 27/11 A2991 RMK A01 T02730114  RH  037%=      5-min Rain = 0
KLO1 160140Z 07008KT 27/11 A2991 RMK A01 T02720114  RH  037%=      5-min Rain = 0
KLO1 160141Z 07008KT 27/12 A2991 RMK A01 T02720115  RH  038%=      5-min Rain = 0
KLO1 160142Z 07010KT 27/12 A2991 RMK A01 T02710115  RH  038%=      5-min Rain = 0
KLO1 160143Z 08011KT 27/12 A2991 RMK A01 T02710115  RH  038%=      5-min Rain = 0
KLO1 160144Z 08010KT 27/12 A2991 RMK A01 T02700115  RH  038%=      5-min Rain = 0
KLO1 160145Z 07010KT 27/12 A2991 RMK A01 T02700115  RH  038%=      5-min Rain = 0
KLO1 160146Z 08009KT 27/12 A2991 RMK A01 T02690115  RH  038%=      5-min Rain = 0
KLO1 160147Z 08009KT 27/12 A2991 RMK A01 T02690116  RH  038%=      5-min Rain = 0
KLO1 160148Z 08010KT 27/12 A2991 RMK A01 T02690117  RH  039%=      5-min Rain = 0
KLO1 160149Z 07011KT 27/12 A2991 RMK A01 T02680117  RH  039%=      5-min Rain = 0
KLO1 160150Z 07010KT 27/12 A2991 RMK A01 T02680118  RH  039%=      5-min Rain = 0
KLO1 160151Z 08011KT 27/12 A2991 RMK A01 T02680120  RH  040%=      5-min Rain = 0
KLO1 160152Z 08010KT 27/12 A2991 RMK A01 T02670121  RH  040%=      5-min Rain = 0
KLO1 160153Z 08009KT 27/12 A2991 RMK A01 T02660121  RH  041%=      5-min Rain = 0
KLO1 160154Z 08009KT 27/12 A2991 RMK A01 T02650121  RH  041%=      5-min Rain = 0
KLO1 160155Z 08008KT 26/12 A2991 RMK A01 T02640120  RH  041%=      5-min Rain = 0
KLO1 160156Z 08009KT 26/12 A2991 RMK A01 T02630119  RH  041%=      5-min Rain = 0
KLO1 160157Z 09011KT 26/12 A2991 RMK A01 T02630118  RH  040%=      5-min Rain = 0
KLO1 160158Z 08011KT 26/12 A2991 RMK A01 T02640117  RH  040%=      5-min Rain = 0
KLO1 160159Z 09011KT 26/12 A2991 RMK A01 T02640117  RH  040%=      5-min Rain = 0
KLO1 160200Z 09011KT 27/12 A2991 RMK A01 T02650117  RH  040%=      5-min Rain = 0
KLO1 160201Z 09011KT 27/12 A2991 RMK A01 T02650117  RH  040%=      5-min Rain = 0
KLO1 160202Z 09011KT 27/12 A2991 RMK A01 T02650117  RH  040%=      5-min Rain = 0
KLO1 160203Z 09011KT 27/12 A299 RMK A01 T02650116  RH  040%=      5-min Rain = 0
KLO1 160204Z 09011KT 27/12 A299 RMK A01 T02650116  RH  039%=      5-min Rain = 0
KLO1 160205Z 09012G17KT 26/12 A2991 RMK A01 T02640116  RH  040%=      5-min Rain = 0
KLO1 160206Z 09011KT 27/12 A299 RMK A01 T02650116  RH  040%=      5-min Rain = 0
KLO1 160207Z 09010KT 26/12 A299 RMK A01 T02640116  RH  040%=      5-min Rain = 0
KLO1 160208Z 09010KT 26/12 A299 RMK A01 T02640116  RH  040%=      5-min Rain = 0
KLO1 160209Z 09009KT 26/12 A299 RMK A01 T02630116  RH  040%=      5-min Rain = 0
KLO1 160210Z 09010KT 26/12 A299 RMK A01 T02630116  RH  040%=      5-min Rain = 0
KLO1 160211Z 09011KT 26/12 A299 RMK A01 T02630117  RH  040%=      5-min Rain = 0
KLO1 160212Z 08010KT 26/12 A299 RMK A01 T02620117  RH  040%=      5-min Rain = 0
KLO1 160213Z 08010KT 26/12 A299 RMK A01 T02620118  RH  041%=      5-min Rain = 0
KLO1 160214Z 08010KT 26/12 A299 RMK A01 T02610119  RH  041%=      5-min Rain = 0
KLO1 160215Z 08009KT 26/12 A299 RMK A01 T02600119  RH  041%=      5-min Rain = 0
KLO1 160216Z 08010KT 26/12 A299 RMK A01 T02600120  RH  042%=      5-min Rain = 0
KLO1 160217Z 08009KT 26/12 A299 RMK A01 T02590120  RH  042%=      5-min Rain = 0
KLO1 160218Z 08010KT 26/12 A2991 RMK A01 T02590121  RH  042%=      5-min Rain = 0
KLO1 160219Z 08011KT 26/12 A2991 RMK A01 T02580122  RH  043%=      5-min Rain = 0
KLO1 160220Z 09009KT 26/12 A2991 RMK A01 T02580123  RH  043%=      5-min Rain = 0
KLO1 160221Z 09009KT 26/12 A2991 RMK A01 T02580123  RH  043%=      5-min Rain = 0
KLO1 160222Z 09009KT 26/12 A2991 RMK A01 T02570124  RH  043%=      5-min Rain = 0
KLO1 160223Z 09009KT 26/12 A2991 RMK A01 T02570124  RH  043%=      5-min Rain = 0
KLO1 160224Z 09008KT 26/12 A2991 RMK A01 T02580124  RH  044%=      5-min Rain = 0
KLO1 160225Z 10008KT 26/13 A2991 RMK A01 T02570125  RH  044%=      5-min Rain = 0
KLO1 160226Z 10008KT 26/13 A2991 RMK A01 T02560125  RH  044%=      5-min Rain = 0
KLO1 160227Z 11008KT 26/13 A2991 RMK A01 T02560126  RH  044%=      5-min Rain = 0
KLO1 160228Z 11009KT 26/13 A2991 RMK A01 T02550126  RH  045%=      5-min Rain = 0
KLO1 160229Z 11010KT 26/13 A2991 RMK A01 T02550126  RH  045%=      5-min Rain = 0
KLO1 160230Z 11010KT 26/13 A2991 RMK A01 T02550126  RH  045%=      5-min Rain = 0
KLO1 160231Z 11009KT 26/13 A2992 RMK A01 T02550126  RH  045%=      5-min Rain = 0
KLO1 160232Z 11010KT 26/13 A2992 RMK A01 T02550127  RH  045%=      5-min Rain = 0
KLO1 160233Z 10010KT 26/13 A2992 RMK A01 T02550127  RH  045%=      5-min Rain = 0
KLO1 160234Z 10010KT 26/13 A2992 RMK A01 T02550127  RH  045%=      5-min Rain = 0
KLO1 160235Z 10010KT 25/13 A2992 RMK A01 T02540127  RH  045%=      5-min Rain = 0
KLO1 160236Z 10012KT 25/13 A2992 RMK A01 T02540129  RH  046%=      5-min Rain = 0
KLO1 160237Z 09011KT 25/13 A2992 RMK A01 T02540130  RH  046%=      5-min Rain = 0
KLO1 160238Z 09012KT 25/13 A2992 RMK A01 T02530130  RH  046%=      5-min Rain = 0
KLO1 160239Z 10013KT 25/13 A2992 RMK A01 T02530132  RH  047%=      5-min Rain = 0
KLO1 160240Z 10010KT 25/13 A2992 RMK A01 T02520132  RH  047%=      5-min Rain = 0
KLO1 160241Z 10012KT 25/13 A2992 RMK A01 T02520132  RH  047%=      5-min Rain = 0
KLO1 160242Z 11011KT 25/13 A2992 RMK A01 T02520133  RH  048%=      5-min Rain = 0
KLO1 160243Z 10011KT 25/13 A2992 RMK A01 T02520133  RH  048%=      5-min Rain = 0
KLO1 160244Z 10013KT 25/13 A2992 RMK A01 T02510134  RH  048%=      5-min Rain = 0
KLO1 160245Z 10011KT 25/14 A2992 RMK A01 T02510135  RH  048%=      5-min Rain = 0
KLO1 160246Z 11009KT 25/13 A2992 RMK A01 T02510134  RH  048%=      5-min Rain = 0
KLO1 160247Z 10011KT 25/14 A2992 RMK A01 T02510135  RH  048%=      5-min Rain = 0
KLO1 160248Z 10012KT 25/14 A2992 RMK A01 T02500135  RH  049%=      5-min Rain = 0
KLO1 160249Z 10010KT 25/14 A2992 RMK A01 T02500136  RH  049%=      5-min Rain = 0
KLO1 160250Z 10013KT 25/14 A2992 RMK A01 T02500136  RH  049%=      5-min Rain = 0
KLO1 160251Z 10011KT 25/14 A2992 RMK A01 T02500137  RH  049%=      5-min Rain = 0
KLO1 160252Z 10010KT 25/14 A2992 RMK A01 T02490137  RH  050%=      5-min Rain = 0
KLO1 160253Z 10011KT 25/14 A2992 RMK A01 T02490137  RH  050%=      5-min Rain = 0
KLO1 160254Z 10011KT 25/14 A2992 RMK A01 T02480137  RH  050%=      5-min Rain = 0
KLO1 160255Z 10009KT 25/14 A2992 RMK A01 T02480137  RH  050%=      5-min Rain = 0
KLO1 160256Z 10011KT 25/14 A2992 RMK A01 T02480138  RH  050%=      5-min Rain = 0
KLO1 160257Z 11009KT 25/14 A2992 RMK A01 T02470138  RH  051%=      5-min Rain = 0
KLO1 160258Z 10012KT 25/14 A2992 RMK A01 T02470138  RH  051%=      5-min Rain = 0
KLO1 160259Z 10013KT 25/14 A2993 RMK A01 T02470140  RH  051%=      5-min Rain = 0
KLO1 160300Z 10012KT 25/14 A2993 RMK A01 T02460140  RH  052%=      5-min Rain = 0
KLO1 160301Z 10012KT 25/14 A2993 RMK A01 T02460141  RH  052%=      5-min Rain = 0
KLO1 160302Z 10012KT 25/14 A2993 RMK A01 T02450142  RH  052%=      5-min Rain = 0
KLO1 160303Z 10012KT 25/14 A2993 RMK A01 T02450142  RH  053%=      5-min Rain = 0
KLO1 160304Z 10012KT 24/14 A2993 RMK A01 T02440142  RH  053%=      5-min Rain = 0
KLO1 160305Z 10012KT 24/14 A2993 RMK A01 T02440143  RH  053%=      5-min Rain = 0
KLO1 160306Z 10010KT 24/14 A2993 RMK A01 T02430143  RH  053%=      5-min Rain = 0
KLO1 160307Z 10010KT 24/14 A2993 RMK A01 T02430143  RH  053%=      5-min Rain = 0
KLO1 160308Z 10010KT 24/14 A2994 RMK A01 T02430143  RH  054%=      5-min Rain = 0
KLO1 160309Z 10011KT 24/14 A2994 RMK A01 T02430143  RH  054%=      5-min Rain = 0
KLO1 160310Z 10011KT 24/14 A2994 RMK A01 T02420143  RH  054%=      5-min Rain = 0
KLO1 160311Z 10011KT 24/14 A2994 RMK A01 T02420143  RH  054%=      5-min Rain = 0
KLO1 160312Z 10009KT 24/14 A2994 RMK A01 T02420143  RH  054%=      5-min Rain = 0
KLO1 160313Z 09009KT 24/14 A2994 RMK A01 T02420143  RH  054%=      5-min Rain = 0
KLO1 160314Z 09008KT 24/14 A2994 RMK A01 T02420143  RH  054%=      5-min Rain = 0
KLO1 160315Z 10009KT 24/14 A2994 RMK A01 T02410143  RH  054%=      5-min Rain = 0
KLO1 160316Z 10010KT 24/14 A2994 RMK A01 T02410142  RH  054%=      5-min Rain = 0
KLO1 160317Z 09011KT 24/14 A2994 RMK A01 T02410143  RH  054%=      5-min Rain = 0
KLO1 160318Z 10011KT 24/14 A2994 RMK A01 T02410143  RH  054%=      5-min Rain = 0
KLO1 160319Z 10012KT 24/14 A2995 RMK A01 T02410143  RH  054%=      5-min Rain = 0
KLO1 160320Z 10013KT 24/14 A2995 RMK A01 T02410142  RH  054%=      5-min Rain = 0
KLO1 160321Z 10013KT 24/14 A2995 RMK A01 T02400142  RH  054%=      5-min Rain = 0
KLO1 160322Z 10013KT 24/14 A2995 RMK A01 T02400141  RH  054%=      5-min Rain = 0
KLO1 160323Z 10013KT 24/14 A2995 RMK A01 T02400141  RH  054%=      5-min Rain = 0
KLO1 160324Z 10014KT 24/14 A2995 RMK A01 T02400139  RH  053%=      5-min Rain = 0
KLO1 160325Z 10016KT 24/14 A2995 RMK A01 T02400138  RH  053%=      5-min Rain = 0
KLO1 160326Z 10015KT 24/14 A2995 RMK A01 T02400137  RH  053%=      5-min Rain = 0
KLO1 160327Z 10015KT 24/14 A2995 RMK A01 T02400137  RH  052%=      5-min Rain = 0
KLO1 160328Z 10014KT 24/14 A2995 RMK A01 T02400137  RH  052%=      5-min Rain = 0
KLO1 160329Z 10012KT 24/14 A2995 RMK A01 T02390136  RH  052%=      5-min Rain = 0
KLO1 160330Z 10016KT 24/14 A2996 RMK A01 T02390136  RH  052%=      5-min Rain = 0
KLO1 160331Z 10013KT 24/14 A2996 RMK A01 T02390136  RH  053%=      5-min Rain = 0
KLO1 160332Z 10015KT 24/14 A2996 RMK A01 T02390136  RH  053%=      5-min Rain = 0
KLO1 160333Z 10016KT 24/14 A2996 RMK A01 T02380136  RH  053%=      5-min Rain = 0
KLO1 160334Z 10019KT 24/14 A2996 RMK A01 T02380137  RH  053%=      5-min Rain = 0
KLO1 160335Z 11017G23KT 24/14 A2996 RMK A01 T02380136  RH  053%=      5-min Rain = 0
KLO1 160336Z 11018KT 24/14 A2996 RMK A01 T02380136  RH  053%=      5-min Rain = 0
KLO1 160337Z 10017KT 24/14 A2996 RMK A01 T02380136  RH  053%=      5-min Rain = 0
KLO1 160338Z 10018G23KT 24/14 A2996 RMK A01 T02380136  RH  053%=      5-min Rain = 0
KLO1 160339Z 10018KT 24/14 A2996 RMK A01 T02370137  RH  053%=      5-min Rain = 0
KLO1 160340Z 10016KT 24/14 A2996 RMK A01 T02370137  RH  054%=      5-min Rain = 0
KLO1 160341Z 11015KT 24/14 A2996 RMK A01 T02360137  RH  054%=      5-min Rain = 0
KLO1 160342Z 10014KT 24/14 A2996 RMK A01 T02360138  RH  054%=      5-min Rain = 0
KLO1 160343Z 10015KT 24/14 A2996 RMK A01 T02360138  RH  054%=      5-min Rain = 0
KLO1 160344Z 10016KT 24/14 A2996 RMK A01 T02350139  RH  055%=      5-min Rain = 0
KLO1 160345Z 10014KT 24/14 A2997 RMK A01 T02350138  RH  055%=      5-min Rain = 0
KLO1 160346Z 10015KT 24/14 A2997 RMK A01 T02350139  RH  055%=      5-min Rain = 0
KLO1 160347Z 10013KT 23/14 A2997 RMK A01 T02340138  RH  055%=      5-min Rain = 0
KLO1 160348Z 10013G18KT 23/14 A2997 RMK A01 T02340139  RH  055%=      5-min Rain = 0
KLO1 160349Z 10013KT 23/14 A2997 RMK A01 T02340139  RH  055%=      5-min Rain = 0
KLO1 160350Z 10015KT 23/14 A2997 RMK A01 T02330139  RH  056%=      5-min Rain = 0
KLO1 160351Z 10012KT 23/14 A2997 RMK A01 T02340140  RH  056%=      5-min Rain = 0
KLO1 160352Z 10013KT 23/14 A2997 RMK A01 T02330140  RH  056%=      5-min Rain = 0
KLO1 160353Z 10012KT 23/14 A2997 RMK A01 T02330140  RH  056%=      5-min Rain = 0
KLO1 160354Z 11013G18KT 23/14 A2997 RMK A01 T02330139  RH  055%=      5-min Rain = 0
KLO1 160355Z 10016KT 23/14 A2997 RMK A01 T02330137  RH  055%=      5-min Rain = 0
KLO1 160356Z 10016KT 23/14 A2997 RMK A01 T02340136  RH  054%=      5-min Rain = 0
KLO1 160357Z 10016KT 23/14 A2998 RMK A01 T02340137  RH  054%=      5-min Rain = 0
KLO1 160358Z 09013KT 23/14 A2998 RMK A01 T02340137  RH  055%=      5-min Rain = 0
KLO1 160359Z 09015KT 23/14 A2998 RMK A01 T02340137  RH  055%=      5-min Rain = 0
KLO1 160400Z 10015KT 23/14 A2997 RMK A01 T02340137  RH  054%=      5-min Rain = 0
KLO1 160401Z 11014KT 23/14 A2997 RMK A01 T02340136  RH  054%=      5-min Rain = 0
KLO1 160402Z 11012KT 23/14 A2997 RMK A01 T02340136  RH  054%=      5-min Rain = 0
KLO1 160403Z 10012KT 23/14 A2997 RMK A01 T02330136  RH  054%=      5-min Rain = 0
KLO1 160404Z 10013KT 23/14 A2997 RMK A01 T02330135  RH  054%=      5-min Rain = 0
KLO1 160405Z 10012KT 23/14 A2997 RMK A01 T02340135  RH  054%=      5-min Rain = 0
KLO1 160406Z 10015KT 23/14 A2998 RMK A01 T02340135  RH  054%=      5-min Rain = 0
KLO1 160407Z 10016KT 23/13 A2998 RMK A01 T02330134  RH  054%=      5-min Rain = 0
KLO1 160408Z 10014KT 23/13 A2997 RMK A01 T02330134  RH  054%=      5-min Rain = 0
KLO1 160409Z 10012KT 23/13 A2997 RMK A01 T02330134  RH  054%=      5-min Rain = 0
KLO1 160410Z 10012KT 23/14 A2997 RMK A01 T02330135  RH  054%=      5-min Rain = 0
KLO1 160411Z 10011KT 23/14 A2997 RMK A01 T02330135  RH  054%=      5-min Rain = 0
KLO1 160412Z 10013KT 23/14 A2997 RMK A01 T02320135  RH  054%=      5-min Rain = 0
KLO1 160413Z 10014KT 23/14 A2997 RMK A01 T02320136  RH  054%=      5-min Rain = 0
KLO1 160414Z 11014KT 23/14 A2997 RMK A01 T02320135  RH  054%=      5-min Rain = 0
KLO1 160415Z 11013KT 23/14 A2997 RMK A01 T02320135  RH  055%=      5-min Rain = 0
KLO1 160416Z 11014KT 23/14 A2997 RMK A01 T02320135  RH  055%=      5-min Rain = 0
KLO1 160417Z 11012KT 23/14 A2997 RMK A01 T02320135  RH  055%=      5-min Rain = 0
KLO1 160418Z 10013KT 23/14 A2997 RMK A01 T02320135  RH  055%=      5-min Rain = 0
KLO1 160419Z 11014KT 23/14 A2997 RMK A01 T02320136  RH  055%=      5-min Rain = 0
KLO1 160420Z 10013KT 23/14 A2998 RMK A01 T02320136  RH  055%=      5-min Rain = 0
KLO1 160421Z 10014KT 23/14 A2998 RMK A01 T02320136  RH  055%=      5-min Rain = 0
KLO1 160422Z 11014KT 23/14 A2998 RMK A01 T02310135  RH  055%=      5-min Rain = 0
KLO1 160423Z 10014KT 23/14 A2998 RMK A01 T02310135  RH  055%=      5-min Rain = 0
KLO1 160424Z 11017KT 23/14 A2998 RMK A01 T02310136  RH  055%=      5-min Rain = 0
KLO1 160425Z 11016KT 23/14 A2998 RMK A01 T02310135  RH  055%=      5-min Rain = 0
KLO1 160426Z 11014KT 23/14 A2998 RMK A01 T02310135  RH  055%=      5-min Rain = 0
KLO1 160427Z 11016KT 23/13 A2998 RMK A01 T02310134  RH  054%=      5-min Rain = 0
KLO1 160428Z 12015KT 23/13 A2998 RMK A01 T02310134  RH  054%=      5-min Rain = 0
KLO1 160429Z 12014KT 23/13 A2998 RMK A01 T02310133  RH  054%=      5-min Rain = 0
KLO1 160430Z 11014KT 23/13 A2998 RMK A01 T02310132  RH  054%=      5-min Rain = 0
KLO1 160431Z 11015KT 23/13 A2998 RMK A01 T02310131  RH  053%=      5-min Rain = 0
KLO1 160432Z 11014KT 23/13 A2998 RMK A01 T02310131  RH  053%=      5-min Rain = 0
KLO1 160433Z 11015KT 23/13 A2998 RMK A01 T02310131  RH  053%=      5-min Rain = 0
KLO1 160434Z 11015KT 23/13 A2998 RMK A01 T02310130  RH  053%=      5-min Rain = 0
KLO1 160435Z 11016KT 23/13 A2998 RMK A01 T02310130  RH  053%=      5-min Rain = 0
KLO1 160436Z 11017G22KT 23/13 A2999 RMK A01 T02310130  RH  053%=      5-min Rain = 0
KLO1 160437Z 11017KT 23/13 A2999 RMK A01 T02310130  RH  053%=      5-min Rain = 0
KLO1 160438Z 11015KT 23/13 A2998 RMK A01 T02310130  RH  053%=      5-min Rain = 0
KLO1 160439Z 12014KT 23/13 A2998 RMK A01 T02300130  RH  053%=      5-min Rain = 0
KLO1 160440Z 12014G19KT 23/13 A2998 RMK A01 T02300130  RH  053%=      5-min Rain = 0
KLO1 160441Z 11013KT 23/13 A2998 RMK A01 T02300131  RH  054%=      5-min Rain = 0
KLO1 160442Z 11014KT 23/13 A2999 RMK A01 T02290131  RH  054%=      5-min Rain = 0
KLO1 160443Z 11014KT 23/13 A2999 RMK A01 T02290131  RH  054%=      5-min Rain = 0
KLO1 160444Z 11014KT 23/13 A2998 RMK A01 T02290131  RH  054%=      5-min Rain = 0
KLO1 160445Z 11014KT 23/13 A2998 RMK A01 T02280131  RH  054%=      5-min Rain = 0
KLO1 160446Z 11014KT 23/13 A2998 RMK A01 T02280132  RH  054%=      5-min Rain = 0
KLO1 160447Z 11012G17KT 23/13 A2998 RMK A01 T02280132  RH  055%=      5-min Rain = 0
KLO1 160448Z 11016KT 23/13 A2998 RMK A01 T02270132  RH  055%=      5-min Rain = 0
KLO1 160449Z 11016KT 23/13 A2998 RMK A01 T02270133  RH  055%=      5-min Rain = 0
KLO1 160450Z 11016KT 23/13 A2998 RMK A01 T02270133  RH  056%=      5-min Rain = 0
KLO1 160451Z 11017KT 23/13 A2998 RMK A01 T02260134  RH  056%=      5-min Rain = 0
KLO1 160452Z 11015KT 23/13 A2998 RMK A01 T02260134  RH  056%=      5-min Rain = 0
KLO1 160453Z 11017KT 23/13 A2998 RMK A01 T02260134  RH  056%=      5-min Rain = 0
KLO1 160454Z 11016KT 23/13 A2998 RMK A01 T02260134  RH  056%=      5-min Rain = 0
KLO1 160455Z 11016KT 23/13 A2998 RMK A01 T02250134  RH  056%=      5-min Rain = 0
KLO1 160456Z 11015G20KT 23/13 A2998 RMK A01 T02250134  RH  056%=      5-min Rain = 0
KLO1 160457Z 12013KT 23/13 A2998 RMK A01 T02250134  RH  056%=      5-min Rain = 0
KLO1 160458Z 11015KT 23/13 A2998 RMK A01 T02250134  RH  056%=      5-min Rain = 0
KLO1 160459Z 11015KT 22/13 A2998 RMK A01 T02240133  RH  056%=      5-min Rain = 0

Page generated in 0.0415 seconds.